Darstellungsparameter: Aktuell verwendete Einstellungen:
Skalierung der Graphiken ... ?
xyx+y,   Skalierungsfaktor:      Skalierung: Modus: x, Faktor: 1
Darstellungszeitraum ... ?
Vom - - bis: - -   Zeitraum: 30.10.2009 - 12.11.2009
Min/Max/Avg-Anzeige ... ?
Zeige MMA aktuell
Zeige MMA Monat
Zeige MMA alles
Zeige --A aktuell
Zeige --A Monat
Zeige --A alles
Keine MMA-Anzeige
MMA:
Average (ber die Originaldaten)
MMA-Basis: 17.04.2019 - 19.05.2019
Quicknavigation für Darstellung... ?
Tage:      1T, 2T, 3T, 5T -1T -2T -3T -5T +1T +2T +3T +5T
Wochen: 1W, 2W, 3W -1W -2W -3W +1W +2W +3W
Monate: 1M, 3M, 6M -1M -3M -6M +1M +3M +6M
Jahre:    1J, 3J, 5J, 10J -1J -3J -5J -10J +1J +3J +5J +10J
Nutze für die Darstellung ... ?
Originaldaten oder Mittelwerte auf ...
Stundenbasis Tagesbasis Wochenbasis
Monatsbasis Jahresbasis      Datenbasis: Original-Daten
Darstellen als:
Statistik (Auto) Statistik J:M      Darstellung:
Zur Graphik,    zurück zur Übersicht aller Sensoren.
 
Tabellarische Datenbersicht: ?
 
Sensor: Nr:Datum:Temp:Abs-Feuchte:Windchill:Wind:
Aussen-T/F 1 30-10-2009 00:05:03 9.8 C 8.26 g/m*3 9.8 C 0 km/h
2 30-10-2009 00:17:03 9.7 C 8.2 g/m*3 9.7 C 0 km/h
3 30-10-2009 00:29:03 9.5 C 8.1 g/m*3 9.5 C 0 km/h
4 30-10-2009 00:41:03 9.5 C 8.19 g/m*3 9.5 C 0 km/h
5 30-10-2009 00:53:03 9.6 C 8.24 g/m*3 9.6 C 0 km/h
6 30-10-2009 01:05:03 9.7 C 8.3 g/m*3 9.7 C 0 km/h
7 30-10-2009 01:17:03 9.7 C 8.39 g/m*3 9.7 C 0 km/h
8 30-10-2009 01:29:03 9.6 C 8.34 g/m*3 9.6 C 0 km/h
9 30-10-2009 01:41:03 9.7 C 8.39 g/m*3 9.7 C 0 km/h
10 30-10-2009 01:53:03 9.7 C 8.39 g/m*3 9.7 C 0 km/h
11 30-10-2009 02:05:03 9.6 C 8.34 g/m*3 9.6 C 0 km/h
12 30-10-2009 02:17:03 9.7 C 8.39 g/m*3 9.7 C 0 km/h
13 30-10-2009 02:29:03 9.7 C 8.39 g/m*3 9.7 C 0 km/h
14 30-10-2009 02:41:04 9.7 C 8.39 g/m*3 9.7 C 0 km/h
15 30-10-2009 02:53:04 9.8 C 8.44 g/m*3 9.8 C 0 km/h
16 30-10-2009 03:05:04 9.8 C 8.44 g/m*3 9.8 C 0 km/h
17 30-10-2009 03:17:04 9.8 C 8.44 g/m*3 9.8 C 0 km/h
18 30-10-2009 03:29:04 9.9 C 8.5 g/m*3 9.9 C 0 km/h
19 30-10-2009 03:41:04 9.9 C 8.5 g/m*3 9.9 C 0 km/h
20 30-10-2009 03:53:04 9.9 C 8.5 g/m*3 9.9 C 0 km/h
21 30-10-2009 04:05:04 9.9 C 8.5 g/m*3 9.9 C 0 km/h
22 30-10-2009 04:17:04 9.8 C 8.44 g/m*3 9.8 C 0 km/h
23 30-10-2009 04:29:04 9.8 C 8.44 g/m*3 9.8 C 0 km/h
24 30-10-2009 04:41:04 9.7 C 8.39 g/m*3 9.7 C 0 km/h
25 30-10-2009 04:53:04 9.7 C 8.39 g/m*3 9.7 C 0 km/h
Sensor: Nr:Datum:Temp:Abs-Feuchte:Windchill:Wind:
Aussen-T/F 26 30-10-2009 05:05:04 9.8 C 8.44 g/m*3 9.8 C 0 km/h
27 30-10-2009 05:17:04 9.7 C 8.39 g/m*3 9.7 C 0 km/h
28 30-10-2009 05:29:04 9.7 C 8.39 g/m*3 9.7 C 0 km/h
29 30-10-2009 05:41:04 9.5 C 8.28 g/m*3 9.5 C 0 km/h
30 30-10-2009 05:53:04 9.3 C 8.27 g/m*3 9.3 C 0 km/h
31 30-10-2009 06:05:04 9.1 C 8.16 g/m*3 9.1 C 0 km/h
32 30-10-2009 06:17:04 9 C 8.11 g/m*3 9 C 0 km/h
33 30-10-2009 06:29:04 8.6 C 7.99 g/m*3 8.6 C 0 km/h
34 30-10-2009 06:41:04 8.4 C 7.89 g/m*3 8.4 C 0 km/h
35 30-10-2009 06:53:05 8.2 C 7.79 g/m*3 8.2 C 0 km/h
36 30-10-2009 07:05:02 8 C 7.69 g/m*3 8 C 0 km/h
37 30-10-2009 07:17:02 7.9 C 7.72 g/m*3 7.9 C 0 km/h
38 30-10-2009 07:29:03 8 C 7.69 g/m*3 8 C 0 km/h
39 30-10-2009 07:41:02 8.2 C 7.87 g/m*3 8.2 C 0 km/h
40 30-10-2009 07:53:02 8.4 C 7.97 g/m*3 8.4 C 0 km/h
41 30-10-2009 08:05:02 8.6 C 8.16 g/m*3 8.6 C 0 km/h
42 30-10-2009 08:17:02 8.6 C 8.16 g/m*3 8.6 C 0 km/h
43 30-10-2009 08:29:02 8.3 C 7.92 g/m*3 8.3 C 0 km/h
44 30-10-2009 08:41:02 8.2 C 7.87 g/m*3 8.2 C 0 km/h
45 30-10-2009 08:53:01 8.3 C 8.01 g/m*3 8.3 C 0 km/h
46 30-10-2009 09:05:02 8.5 C 8.11 g/m*3 8.5 C 0 km/h
47 30-10-2009 09:17:01 8.7 C 8.13 g/m*3 8.7 C 0 km/h
48 30-10-2009 09:29:01 8.8 C 8.18 g/m*3 8.8 C 0 km/h
49 30-10-2009 09:41:02 9.1 C 8.25 g/m*3 9.1 C 0 km/h
50 30-10-2009 09:53:02 9.3 C 8.36 g/m*3 9.3 C 0 km/h
Sensor: Nr:Datum:Temp:Abs-Feuchte:Windchill:Wind:
Aussen-T/F 51 30-10-2009 10:05:02 9.6 C 8.52 g/m*3 9.6 C 0 km/h
52 30-10-2009 10:17:01 10 C 8.55 g/m*3 10 C 0 km/h
53 30-10-2009 10:29:01 10.2 C 8.28 g/m*3 10.2 C 0 km/h
54 30-10-2009 10:41:02 10.4 C 8 g/m*3 10.4 C 0 km/h
55 30-10-2009 10:53:02 10.5 C 7.66 g/m*3 10.5 C 0 km/h
56 30-10-2009 11:05:02 10.8 C 7.51 g/m*3 10.8 C 0 km/h
57 30-10-2009 11:17:02 11.1 C 7.55 g/m*3 11.1 C 0 km/h
58 30-10-2009 11:29:02 11.9 C 7.63 g/m*3 11.9 C 0 km/h
59 30-10-2009 11:41:02 12.2 C 7.45 g/m*3 12.2 C 0 km/h
60 30-10-2009 11:53:02 12.8 C 7.39 g/m*3 12.8 C 0 km/h
61 30-10-2009 12:05:02 13.1 C 7.19 g/m*3 13.1 C 0 km/h
62 30-10-2009 12:17:02 13 C 7.14 g/m*3 13 C 0 km/h
63 30-10-2009 12:29:02 13.4 C 7.44 g/m*3 13.4 C 0 km/h
64 30-10-2009 12:41:02 13.7 C 7.22 g/m*3 13.7 C 0 km/h
65 30-10-2009 12:53:01 13.9 C 7.19 g/m*3 13.9 C 0 km/h
66 30-10-2009 13:05:01 14.2 C 6.96 g/m*3 14.2 C 0 km/h
67 30-10-2009 13:17:01 14.5 C 7.09 g/m*3 14.5 C 0 km/h
68 30-10-2009 13:29:01 14.7 C 7.3 g/m*3 14.7 C 0 km/h
69 30-10-2009 13:41:01 15.1 C 7.48 g/m*3 15.1 C 0 km/h
70 30-10-2009 13:53:01 15.9 C 7.58 g/m*3 15.9 C 0 km/h
71 30-10-2009 14:05:01 16.3 C 7.35 g/m*3 16.3 C 0 km/h
72 30-10-2009 14:17:02 16.8 C 7.01 g/m*3 16.8 C 0 km/h
73 30-10-2009 14:29:02 17.2 C 6.59 g/m*3 17.2 C 0 km/h
74 30-10-2009 14:41:01 17.5 C 6.26 g/m*3 17.5 C 0 km/h
75 30-10-2009 14:53:01 17.4 C 5.93 g/m*3 17.4 C 0 km/h
Sensor: Nr:Datum:Temp:Abs-Feuchte:Windchill:Wind:
Aussen-T/F 76 30-10-2009 15:05:01 17.3 C 5.89 g/m*3 17.3 C 0 km/h
77 30-10-2009 15:17:02 17.4 C 5.78 g/m*3 17.4 C 0 km/h
78 30-10-2009 15:29:02 17.2 C 5.56 g/m*3 17.2 C 0 km/h
79 30-10-2009 15:41:01 16.9 C 5.61 g/m*3 16.9 C 0 km/h
80 30-10-2009 15:53:01 17.1 C 5.82 g/m*3 17.1 C 0 km/h
81 30-10-2009 16:05:01 16.9 C 5.9 g/m*3 16.9 C 0 km/h
82 30-10-2009 16:17:02 16.7 C 6.11 g/m*3 16.7 C 0 km/h
83 30-10-2009 16:29:02 15.9 C 6.09 g/m*3 15.9 C 0 km/h
84 30-10-2009 16:41:01 14.7 C 6.3 g/m*3 14.7 C 0 km/h
85 30-10-2009 16:53:02 13.7 C 6.39 g/m*3 13.7 C 0 km/h
86 30-10-2009 17:05:01 13 C 6.46 g/m*3 13 C 0 km/h
87 30-10-2009 17:17:02 12.3 C 6.62 g/m*3 12.3 C 0 km/h
88 30-10-2009 17:29:02 11.8 C 6.63 g/m*3 11.8 C 0 km/h
89 30-10-2009 17:41:01 11.3 C 6.63 g/m*3 11.3 C 0 km/h
90 30-10-2009 17:53:02 10.8 C 6.72 g/m*3 10.8 C 0 km/h
91 30-10-2009 18:05:02 10.5 C 6.69 g/m*3 10.5 C 0 km/h
92 30-10-2009 18:17:02 10.4 C 6.84 g/m*3 10.4 C 0 km/h
93 30-10-2009 18:29:03 10.2 C 6.85 g/m*3 10.2 C 0 km/h
94 30-10-2009 18:41:02 10.1 C 6.9 g/m*3 10.1 C 0 km/h
95 30-10-2009 18:53:02 10 C 6.95 g/m*3 10 C 0 km/h
96 30-10-2009 19:05:01 9.8 C 7.05 g/m*3 9.8 C 0 km/h
97 30-10-2009 19:17:02 9.6 C 6.96 g/m*3 9.6 C 0 km/h
98 30-10-2009 19:29:02 9.5 C 7.01 g/m*3 9.5 C 0 km/h
99 30-10-2009 19:41:02 9.3 C 6.92 g/m*3 9.3 C 0 km/h
100 30-10-2009 19:53:01 9 C 6.88 g/m*3 9 C 0 km/h
Sensor: Nr:Datum:Temp:Abs-Feuchte:Windchill:Wind:
Aussen-T/F 101 30-10-2009 20:05:01 8.9 C 6.92 g/m*3 8.9 C 0 km/h
102 30-10-2009 20:17:01 8.6 C 6.87 g/m*3 8.6 C 0 km/h
103 30-10-2009 20:29:01 8.4 C 6.79 g/m*3 8.4 C 0 km/h
104 30-10-2009 20:41:02 8.2 C 6.78 g/m*3 8.2 C 0 km/h
105 30-10-2009 20:53:02 8.1 C 6.74 g/m*3 8.1 C 0 km/h
106 30-10-2009 21:05:02 7.9 C 6.82 g/m*3 7.9 C 0 km/h
107 30-10-2009 21:17:01 7.6 C 6.69 g/m*3 7.6 C 0 km/h
108 30-10-2009 21:29:01 7.5 C 6.72 g/m*3 7.5 C 0 km/h
109 30-10-2009 21:41:02 7.3 C 6.64 g/m*3 7.3 C 0 km/h
110 30-10-2009 21:53:02 7.3 C 6.64 g/m*3 7.3 C 0 km/h
111 30-10-2009 22:06:04 7.3 C 6.72 g/m*3 7.3 C 0 km/h
112 30-10-2009 22:18:04 7.2 C 6.59 g/m*3 7.2 C 0 km/h
113 30-10-2009 22:30:04 7 C 6.51 g/m*3 7 C 0 km/h
114 30-10-2009 22:42:04 6.9 C 6.54 g/m*3 6.9 C 0 km/h
115 30-10-2009 22:54:04 6.6 C 6.42 g/m*3 6.6 C 0 km/h
116 30-10-2009 23:06:04 6.5 C 6.37 g/m*3 6.5 C 0 km/h
117 30-10-2009 23:18:04 6.4 C 6.41 g/m*3 6.4 C 0 km/h
118 30-10-2009 23:30:04 6.2 C 6.32 g/m*3 6.2 C 0 km/h
119 30-10-2009 23:42:04 6 C 6.24 g/m*3 6 C 0 km/h
120 30-10-2009 23:54:04 6 C 6.24 g/m*3 6 C 0 km/h
121 31-10-2009 00:06:04 5.9 C 6.27 g/m*3 5.9 C 0 km/h
122 31-10-2009 00:18:04 5.8 C 6.3 g/m*3 5.8 C 0 km/h
123 31-10-2009 00:30:04 5.6 C 6.22 g/m*3 5.6 C 0 km/h
124 31-10-2009 00:42:04 5.5 C 6.18 g/m*3 5.5 C 0 km/h
125 31-10-2009 00:54:04 5.6 C 6.29 g/m*3 5.6 C 0 km/h
Sensor: Nr:Datum:Temp:Abs-Feuchte:Windchill:Wind:
Aussen-T/F 126 31-10-2009 01:06:04 5.5 C 6.25 g/m*3 5.5 C 0 km/h
127 31-10-2009 01:18:04 5.3 C 6.17 g/m*3 5.3 C 0 km/h
128 31-10-2009 01:30:04 5.1 C 6.09 g/m*3 5.1 C 0 km/h
129 31-10-2009 01:42:05 4.9 C 6.08 g/m*3 4.9 C 0 km/h
130 31-10-2009 01:54:05 4.8 C 6.04 g/m*3 4.8 C 0 km/h
131 31-10-2009 02:06:05 4.6 C 5.96 g/m*3 4.6 C 0 km/h
132 31-10-2009 02:18:05 4.6 C 5.96 g/m*3 4.6 C 0 km/h
133 31-10-2009 02:30:05 4.6 C 5.96 g/m*3 4.6 C 0 km/h
134 31-10-2009 02:42:05 4.3 C 5.84 g/m*3 4.3 C 0 km/h
135 31-10-2009 02:54:05 4.2 C 5.8 g/m*3 4.2 C 0 km/h
136 31-10-2009 03:06:05 4.2 C 5.86 g/m*3 4.2 C 0 km/h
137 31-10-2009 03:18:05 4.1 C 5.82 g/m*3 4.1 C 0 km/h
138 31-10-2009 03:30:05 3.9 C 5.75 g/m*3 3.9 C 0 km/h
139 31-10-2009 03:42:05 3.8 C 5.77 g/m*3 3.8 C 0 km/h
140 31-10-2009 03:54:05 3.7 C 5.73 g/m*3 3.7 C 0 km/h
141 31-10-2009 04:06:05 3.7 C 5.73 g/m*3 3.7 C 0 km/h
142 31-10-2009 04:18:05 3.7 C 5.73 g/m*3 3.7 C 0 km/h
143 31-10-2009 04:30:05 3.7 C 5.73 g/m*3 3.7 C 0 km/h
144 31-10-2009 04:42:05 3.7 C 5.73 g/m*3 3.7 C 0 km/h
145 31-10-2009 04:54:05 3.8 C 5.77 g/m*3 3.8 C 0 km/h
146 31-10-2009 05:06:05 3.9 C 5.81 g/m*3 3.9 C 0 km/h
147 31-10-2009 05:18:05 3.8 C 5.83 g/m*3 3.8 C 0 km/h
148 31-10-2009 05:30:05 3.8 C 5.83 g/m*3 3.8 C 0 km/h
149 31-10-2009 05:42:06 3.8 C 5.83 g/m*3 3.8 C 0 km/h
150 31-10-2009 05:54:06 3.8 C 5.83 g/m*3 3.8 C 0 km/h
Sensor: Nr:Datum:Temp:Abs-Feuchte:Windchill:Wind:
Aussen-T/F 151 31-10-2009 06:06:06 3.6 C 5.76 g/m*3 3.6 C 0 km/h
152 31-10-2009 06:18:06 3.6 C 5.76 g/m*3 3.6 C 0 km/h
153 31-10-2009 06:30:06 3.6 C 5.82 g/m*3 3.6 C 0 km/h
154 31-10-2009 06:42:06 3.5 C 5.78 g/m*3 3.5 C 0 km/h
155 31-10-2009 06:54:06 3.6 C 5.82 g/m*3 3.6 C 0 km/h
156 31-10-2009 07:06:06 3.6 C 5.88 g/m*3 3.6 C 0 km/h
157 31-10-2009 07:18:06 3.7 C 5.92 g/m*3 3.7 C 0 km/h
158 31-10-2009 07:30:06 3.7 C 5.92 g/m*3 3.7 C 0 km/h
159 31-10-2009 07:42:06 3.8 C 5.96 g/m*3 3.8 C 0 km/h
160 31-10-2009 07:54:06 3.9 C 6 g/m*3 3.9 C 0 km/h
161 31-10-2009 08:06:04 4 C 6.04 g/m*3 4 C 0 km/h
162 31-10-2009 08:18:03 4.1 C 6.08 g/m*3 4.1 C 0 km/h
163 31-10-2009 08:30:03 4.3 C 6.16 g/m*3 4.3 C 0 km/h
164 31-10-2009 08:42:03 4.3 C 6.16 g/m*3 4.3 C 0 km/h
165 31-10-2009 08:54:02 4.5 C 6.24 g/m*3 4.5 C 0 km/h
166 31-10-2009 09:06:01 4.7 C 6.33 g/m*3 4.7 C 0 km/h
167 31-10-2009 09:18:02 4.9 C 6.41 g/m*3 4.9 C 0 km/h
168 31-10-2009 09:30:03 5.1 C 6.43 g/m*3 5.1 C 0 km/h
169 31-10-2009 09:42:01 5.4 C 6.49 g/m*3 5.4 C 0 km/h
170 31-10-2009 09:54:02 6 C 6.75 g/m*3 6 C 0 km/h
171 31-10-2009 10:06:01 6.5 C 6.9 g/m*3 6.5 C 0 km/h
172 31-10-2009 10:18:01 6.7 C 6.91 g/m*3 6.7 C 0 km/h
173 31-10-2009 10:30:01 7 C 6.74 g/m*3 7 C 0 km/h
174 31-10-2009 10:42:02 7.3 C 6.64 g/m*3 7.3 C 0 km/h
175 31-10-2009 10:54:02 7.6 C 6.53 g/m*3 7.6 C 0 km/h
Sensor: Nr:Datum:Temp:Abs-Feuchte:Windchill:Wind:
Aussen-T/F 176 31-10-2009 11:06:02 8 C 6.28 g/m*3 8 C 0 km/h
177 31-10-2009 11:18:02 8.5 C 6.49 g/m*3 8.5 C 0 km/h
178 31-10-2009 11:30:02 8.7 C 6.4 g/m*3 8.7 C 0 km/h
179 31-10-2009 11:42:03 9 C 6.26 g/m*3 9 C 0 km/h
180 31-10-2009 11:54:02 9.5 C 6.37 g/m*3 9.5 C 0 km/h
181 31-10-2009 12:06:03 9.5 C 5.64 g/m*3 9.5 C 0 km/h
182 31-10-2009 12:18:02 9.7 C 5.62 g/m*3 9.7 C 0 km/h
183 31-10-2009 12:30:02 9.7 C 5.44 g/m*3 9.7 C 0 km/h
184 31-10-2009 12:42:03 10.2 C 5.61 g/m*3 10.2 C 0 km/h
185 31-10-2009 12:54:02 10.6 C 5.37 g/m*3 10.6 C 0 km/h
186 31-10-2009 13:06:03 10.9 C 5.27 g/m*3 10.9 C 0 km/h
187 31-10-2009 13:18:02 11.1 C 5.14 g/m*3 11.1 C 0 km/h
188 31-10-2009 13:30:02 11.2 C 4.87 g/m*3 11.2 C 0 km/h
189 31-10-2009 13:42:02 11.9 C 5.08 g/m*3 11.9 C 0 km/h
190 31-10-2009 13:54:02 12.4 C 4.92 g/m*3 12.4 C 0 km/h
191 31-10-2009 14:06:01 12.5 C 4.73 g/m*3 12.5 C 0 km/h
192 31-10-2009 14:18:02 13.2 C 4.59 g/m*3 13.2 C 0 km/h
193 31-10-2009 14:30:02 12.7 C 4.56 g/m*3 12.7 C 0 km/h
194 31-10-2009 14:42:02 12.9 C 4.62 g/m*3 12.9 C 0 km/h
195 31-10-2009 14:54:02 13.1 C 4.45 g/m*3 13.1 C 0 km/h
196 31-10-2009 15:06:01 12.7 C 4.56 g/m*3 12.7 C 0 km/h
197 31-10-2009 15:18:02 13 C 4.54 g/m*3 13 C 0 km/h
198 31-10-2009 15:30:02 13.5 C 4.44 g/m*3 13.5 C 0 km/h
199 31-10-2009 15:42:01 13.8 C 4.65 g/m*3 13.8 C 0 km/h
200 31-10-2009 15:54:02 12.8 C 4.37 g/m*3 12.8 C 0 km/h
Sensor: Nr:Datum:Temp:Abs-Feuchte:Windchill:Wind:
Aussen-T/F 201 31-10-2009 16:06:02 12.5 C 4.4 g/m*3 12.5 C 0 km/h
202 31-10-2009 16:18:02 12.3 C 4.45 g/m*3 12.3 C 0 km/h
203 31-10-2009 16:30:02 11.7 C 4.81 g/m*3 11.7 C 0 km/h
204 31-10-2009 16:42:03 10.8 C 4.74 g/m*3 10.8 C 0 km/h
205 31-10-2009 16:54:02 10.1 C 4.63 g/m*3 10.1 C 0 km/h
206 31-10-2009 17:06:02 9.6 C 4.76 g/m*3 9.6 C 0 km/h
207 31-10-2009 17:18:02 9.2 C 4.73 g/m*3 9.2 C 0 km/h
208 31-10-2009 17:30:02 9.1 C 4.79 g/m*3 9.1 C 0 km/h
209 31-10-2009 17:42:02 8.9 C 4.82 g/m*3 8.9 C 0 km/h
210 31-10-2009 17:54:02 8.6 C 4.9 g/m*3 8.6 C 0 km/h
211 31-10-2009 18:06:02 8.6 C 4.98 g/m*3 8.6 C 0 km/h
212 31-10-2009 18:18:02 8.5 C 5.04 g/m*3 8.5 C 0 km/h
213 31-10-2009 18:30:02 8.3 C 5.06 g/m*3 8.3 C 0 km/h
214 31-10-2009 18:42:02 7.9 C 5.17 g/m*3 7.9 C 0 km/h
215 31-10-2009 18:54:01 7.6 C 5.24 g/m*3 7.6 C 0 km/h
216 31-10-2009 19:06:02 7.3 C 5.21 g/m*3 7.3 C 0 km/h
217 31-10-2009 19:18:01 7 C 5.27 g/m*3 7 C 0 km/h
218 31-10-2009 19:30:01 6.8 C 5.43 g/m*3 6.8 C 0 km/h
219 31-10-2009 19:42:01 6.6 C 5.36 g/m*3 6.6 C 0 km/h
220 31-10-2009 19:54:01 6.4 C 5.36 g/m*3 6.4 C 0 km/h
221 31-10-2009 20:06:02 6.3 C 5.48 g/m*3 6.3 C 0 km/h
222 31-10-2009 20:18:01 6.3 C 5.48 g/m*3 6.3 C 0 km/h
223 31-10-2009 20:30:01 6.4 C 5.59 g/m*3 6.4 C 0 km/h
224 31-10-2009 20:42:02 6.7 C 5.7 g/m*3 6.7 C 0 km/h
225 31-10-2009 20:54:01 6.8 C 5.66 g/m*3 6.8 C 0 km/h
Sensor: Nr:Datum:Temp:Abs-Feuchte:Windchill:Wind:
Aussen-T/F 226 31-10-2009 21:06:01 6.9 C 5.7 g/m*3 6.9 C 0 km/h
227 31-10-2009 21:18:02 6.9 C 5.7 g/m*3 6.9 C 0 km/h
228 31-10-2009 21:30:02 6.7 C 5.62 g/m*3 6.7 C 0 km/h
229 31-10-2009 21:42:30 6.6 C 5.66 g/m*3 6.6 C 0 km/h
230 31-10-2009 21:54:30 6.7 C 5.7 g/m*3 6.7 C 0 km/h
231 31-10-2009 22:06:30 6.7 C 5.7 g/m*3 6.7 C 0 km/h
232 31-10-2009 22:18:30 6.6 C 5.66 g/m*3 6.6 C 0 km/h
233 31-10-2009 22:30:30 6.5 C 5.62 g/m*3 6.5 C 0 km/h
234 31-10-2009 22:42:30 6.7 C 5.77 g/m*3 6.7 C 0 km/h
235 31-10-2009 22:54:30 6.7 C 5.77 g/m*3 6.7 C 0 km/h
236 31-10-2009 23:06:30 6.7 C 5.77 g/m*3 6.7 C 0 km/h
237 31-10-2009 23:18:00 6.7 C 5.77 g/m*3 6.7 C 0 km/h
238 31-10-2009 23:30:00 6.6 C 5.74 g/m*3 6.6 C 0 km/h
239 31-10-2009 23:42:01 6.4 C 5.66 g/m*3 6.4 C 0 km/h
240 31-10-2009 23:54:02 6.2 C 5.59 g/m*3 6.2 C 0 km/h
241 01-11-2009 00:06:02 6.1 C 5.63 g/m*3 6.1 C 0 km/h
242 01-11-2009 00:18:02 6.1 C 5.7 g/m*3 6.1 C 0 km/h
243 01-11-2009 00:30:02 6 C 5.66 g/m*3 6 C 0 km/h
244 01-11-2009 00:42:02 5.9 C 5.77 g/m*3 5.9 C 0 km/h
245 01-11-2009 00:54:02 5.7 C 5.76 g/m*3 5.7 C 0 km/h
246 01-11-2009 01:06:02 5.7 C 5.76 g/m*3 5.7 C 0 km/h
247 01-11-2009 01:18:02 5.7 C 5.84 g/m*3 5.7 C 0 km/h
248 01-11-2009 01:30:02 5.7 C 5.84 g/m*3 5.7 C 0 km/h
249 01-11-2009 01:42:02 5.6 C 5.8 g/m*3 5.6 C 0 km/h
250 01-11-2009 01:54:02 5.4 C 5.72 g/m*3 5.4 C 0 km/h
Sensor: Nr:Datum:Temp:Abs-Feuchte:Windchill:Wind:
Aussen-T/F 251 01-11-2009 02:06:02 5.3 C 5.75 g/m*3 5.3 C 0 km/h
252 01-11-2009 02:18:02 5.1 C 5.68 g/m*3 5.1 C 0 km/h
253 01-11-2009 02:30:03 5.1 C 5.75 g/m*3 5.1 C 0 km/h
254 01-11-2009 02:42:02 5 C 5.78 g/m*3 5 C 0 km/h
255 01-11-2009 02:55:04 5 C 5.78 g/m*3 5 C 0 km/h
256 01-11-2009 03:07:04 5.2 C 5.92 g/m*3 5.2 C 0 km/h
257 01-11-2009 03:19:03 5.4 C 6.07 g/m*3 5.4 C 0 km/h
258 01-11-2009 03:31:02 5.7 C 6.19 g/m*3 5.7 C 0 km/h
259 01-11-2009 03:43:02 5.7 C 6.19 g/m*3 5.7 C 0 km/h
260 01-11-2009 03:55:02 5.6 C 6.08 g/m*3 5.6 C 0 km/h
261 01-11-2009 04:07:02 5.5 C 6.04 g/m*3 5.5 C 0 km/h
262 01-11-2009 04:19:03 5.5 C 6.04 g/m*3 5.5 C 0 km/h
263 01-11-2009 04:31:02 5.7 C 6.19 g/m*3 5.7 C 0 km/h
264 01-11-2009 04:43:02 5.8 C 6.23 g/m*3 5.8 C 0 km/h
265 01-11-2009 04:55:02 5.9 C 6.27 g/m*3 5.9 C 0 km/h
266 01-11-2009 05:07:02 5.9 C 6.2 g/m*3 5.9 C 0 km/h
267 01-11-2009 05:19:03 6 C 6.17 g/m*3 6 C 0 km/h
268 01-11-2009 05:31:02 6.1 C 6.21 g/m*3 6.1 C 0 km/h
269 01-11-2009 05:43:02 6.3 C 6.29 g/m*3 6.3 C 0 km/h
270 01-11-2009 05:55:03 6.2 C 6.25 g/m*3 6.2 C 0 km/h
271 01-11-2009 06:07:02 6.4 C 6.33 g/m*3 6.4 C 0 km/h
272 01-11-2009 06:19:02 6.6 C 6.42 g/m*3 6.6 C 0 km/h
273 01-11-2009 06:31:02 6.7 C 6.38 g/m*3 6.7 C 0 km/h
274 01-11-2009 06:43:02 6.8 C 6.42 g/m*3 6.8 C 0 km/h
275 01-11-2009 06:55:02 6.8 C 6.42 g/m*3 6.8 C 0 km/h
Sensor: Nr:Datum:Temp:Abs-Feuchte:Windchill:Wind:
Aussen-T/F 276 01-11-2009 07:07:02 6.8 C 6.35 g/m*3 6.8 C 0 km/h
277 01-11-2009 07:19:02 6.6 C 6.27 g/m*3 6.6 C 0 km/h
278 01-11-2009 07:31:02 6.7 C 6.31 g/m*3 6.7 C 0 km/h
279 01-11-2009 07:43:02 6.9 C 6.47 g/m*3 6.9 C 0 km/h
280 01-11-2009 07:55:02 6.9 C 6.39 g/m*3 6.9 C 0 km/h
281 01-11-2009 08:07:01 7.2 C 6.44 g/m*3 7.2 C 0 km/h
282 01-11-2009 08:19:01 7.5 C 6.48 g/m*3 7.5 C 0 km/h
283 01-11-2009 08:31:02 7.9 C 6.49 g/m*3 7.9 C 0 km/h
284 01-11-2009 08:43:02 8.2 C 6.28 g/m*3 8.2 C 0 km/h
285 01-11-2009 08:55:02 8.3 C 6.15 g/m*3 8.3 C 0 km/h
286 01-11-2009 09:07:03 8.3 C 6.07 g/m*3 8.3 C 0 km/h
287 01-11-2009 09:19:02 8.5 C 6.06 g/m*3 8.5 C 0 km/h
288 01-11-2009 09:31:02 8.8 C 6.18 g/m*3 8.8 C 0 km/h
289 01-11-2009 09:43:02 9.1 C 6.21 g/m*3 9.1 C 0 km/h
290 01-11-2009 09:55:02 9.3 C 6.2 g/m*3 9.3 C 0 km/h
291 01-11-2009 10:07:02 9.4 C 6.06 g/m*3 9.4 C 0 km/h
292 01-11-2009 10:19:01 9.5 C 6.1 g/m*3 9.5 C 0 km/h
293 01-11-2009 10:31:02 9.7 C 6.08 g/m*3 9.7 C 0 km/h
294 01-11-2009 10:43:02 10 C 6.2 g/m*3 10 C 0 km/h
295 01-11-2009 10:55:02 10.2 C 6.28 g/m*3 10.2 C 0 km/h
296 01-11-2009 11:07:01 11.1 C 6.45 g/m*3 11.1 C 0 km/h
297 01-11-2009 11:19:02 11.9 C 6.57 g/m*3 11.9 C 0 km/h
298 01-11-2009 11:31:02 12.4 C 6.45 g/m*3 12.4 C 0 km/h
299 01-11-2009 11:43:02 12.7 C 6.35 g/m*3 12.7 C 0 km/h
300 01-11-2009 11:55:01 13.2 C 6.43 g/m*3 13.2 C 0 km/h
Sensor: Nr:Datum:Temp:Abs-Feuchte:Windchill:Wind:
Aussen-T/F 301 01-11-2009 12:07:01 13.2 C 6.32 g/m*3 13.2 C 0 km/h
302 01-11-2009 12:19:01 13.2 C 6.2 g/m*3 13.2 C 0 km/h
303 01-11-2009 12:31:01 13.4 C 6.39 g/m*3 13.4 C 0 km/h
304 01-11-2009 12:43:01 14 C 6.39 g/m*3 14 C 0 km/h
305 01-11-2009 12:55:01 14.2 C 6.35 g/m*3 14.2 C 0 km/h
306 01-11-2009 13:07:02 14.3 C 6.39 g/m*3 14.3 C 0 km/h
307 01-11-2009 13:19:01 14.3 C 6.51 g/m*3 14.3 C 0 km/h
308 01-11-2009 13:31:01 14.1 C 6.31 g/m*3 14.1 C 0 km/h
309 01-11-2009 13:43:02 14 C 6.27 g/m*3 14 C 0 km/h
310 01-11-2009 13:55:01 14.1 C 6.19 g/m*3 14.1 C 0 km/h
311 01-11-2009 14:07:01 13.9 C 6.23 g/m*3 13.9 C 0 km/h
312 01-11-2009 14:19:01 13.8 C 6.31 g/m*3 13.8 C 0 km/h
313 01-11-2009 14:31:01 13.6 C 6.36 g/m*3 13.6 C 0 km/h
314 01-11-2009 14:43:01 13.5 C 6.43 g/m*3 13.5 C 0 km/h
315 01-11-2009 14:55:02 13.2 C 6.32 g/m*3 13.2 C 0 km/h
316 01-11-2009 15:07:02 12.8 C 6.38 g/m*3 12.8 C 0 km/h
317 01-11-2009 15:19:02 12.5 C 6.38 g/m*3 12.5 C 0 km/h
318 01-11-2009 15:31:02 12.1 C 6.33 g/m*3 12.1 C 0 km/h
319 01-11-2009 15:43:02 12 C 6.29 g/m*3 12 C 0 km/h
320 01-11-2009 15:55:01 12 C 6.39 g/m*3 12 C 0 km/h
321 01-11-2009 16:07:01 11.8 C 6.42 g/m*3 11.8 C 0 km/h
322 01-11-2009 16:19:02 11.6 C 6.44 g/m*3 11.6 C 0 km/h
323 01-11-2009 16:31:01 11.5 C 6.51 g/m*3 11.5 C 0 km/h
324 01-11-2009 16:43:01 11.4 C 6.57 g/m*3 11.4 C 0 km/h
325 01-11-2009 16:55:03 11.3 C 6.63 g/m*3 11.3 C 0 km/h
Sensor: Nr:Datum:Temp:Abs-Feuchte:Windchill:Wind:
Aussen-T/F 326 01-11-2009 17:07:02 11.3 C 6.73 g/m*3 11.3 C 0 km/h
327 01-11-2009 17:19:03 11.3 C 6.83 g/m*3 11.3 C 0 km/h
328 01-11-2009 17:31:02 11.1 C 6.75 g/m*3 11.1 C 0 km/h
329 01-11-2009 17:43:02 10.8 C 6.72 g/m*3 10.8 C 0 km/h
330 01-11-2009 17:55:02 10.7 C 6.68 g/m*3 10.7 C 0 km/h
331 01-11-2009 18:07:02 10.4 C 6.75 g/m*3 10.4 C 0 km/h
332 01-11-2009 18:19:02 10.2 C 6.85 g/m*3 10.2 C 0 km/h
333 01-11-2009 18:31:03 9.9 C 7 g/m*3 9.9 C 0 km/h
334 01-11-2009 18:43:03 9.6 C 7.15 g/m*3 9.6 C 0 km/h
335 01-11-2009 18:55:02 9.6 C 7.33 g/m*3 9.6 C 0 km/h
336 01-11-2009 19:07:01 9.5 C 7.46 g/m*3 9.5 C 0 km/h
337 01-11-2009 19:19:02 9.4 C 7.6 g/m*3 9.4 C 0 km/h
338 01-11-2009 19:31:02 9.3 C 7.64 g/m*3 9.3 C 0 km/h
339 01-11-2009 19:43:02 9.5 C 7.83 g/m*3 9.5 C 0 km/h
340 01-11-2009 19:55:01 9.5 C 7.92 g/m*3 9.5 C 0 km/h
341 01-11-2009 20:07:02 9.4 C 7.96 g/m*3 9.4 C 0 km/h
342 01-11-2009 20:19:01 9.5 C 8.1 g/m*3 9.5 C 0 km/h
343 01-11-2009 20:31:02 9.5 C 8.1 g/m*3 9.5 C 0 km/h
344 01-11-2009 20:43:03 9.4 C 8.05 g/m*3 9.4 C 0 km/h
345 01-11-2009 20:55:02 9.4 C 8.14 g/m*3 9.4 C 0 km/h
346 01-11-2009 21:07:02 9.4 C 8.14 g/m*3 9.4 C 0 km/h
347 01-11-2009 21:19:02 9.4 C 8.14 g/m*3 9.4 C 0 km/h
348 01-11-2009 21:31:02 9.5 C 8.19 g/m*3 9.5 C 0 km/h
349 01-11-2009 21:43:02 9.4 C 8.14 g/m*3 9.4 C 0 km/h
350 01-11-2009 21:55:02 9.5 C 8.28 g/m*3 9.5 C 0 km/h
Sensor: Nr:Datum:Temp:Abs-Feuchte:Windchill:Wind:
Aussen-T/F 351 01-11-2009 22:07:02 9.5 C 8.28 g/m*3 9.5 C 0 km/h
352 01-11-2009 22:19:02 9.6 C 8.34 g/m*3 9.6 C 0 km/h
353 01-11-2009 22:32:04 9.7 C 8.39 g/m*3 9.7 C 0 km/h
354 01-11-2009 22:44:04 9.7 C 8.48 g/m*3 9.7 C 0 km/h
355 01-11-2009 22:56:04 9.8 C 8.54 g/m*3 9.8 C 0 km/h
356 01-11-2009 23:08:04 9.8 C 8.54 g/m*3 9.8 C 0 km/h
357 01-11-2009 23:20:04 9.8 C 8.54 g/m*3 9.8 C 0 km/h
358 01-11-2009 23:32:04 10 C 8.55 g/m*3 10 C 0 km/h
359 01-11-2009 23:44:04 10.1 C 8.61 g/m*3 10.1 C 0 km/h
360 01-11-2009 23:56:04 10.2 C 8.76 g/m*3 10.2 C 0 km/h
361 02-11-2009 00:08:04 10.2 C 8.76 g/m*3 10.2 C 0 km/h
362 02-11-2009 00:20:04 10.2 C 8.76 g/m*3 10.2 C 0 km/h
363 02-11-2009 00:32:04 10.2 C 8.76 g/m*3 10.2 C 0 km/h
364 02-11-2009 00:44:04 10.2 C 8.76 g/m*3 10.2 C 0 km/h
365 02-11-2009 00:56:04 10.2 C 8.76 g/m*3 10.2 C 0 km/h
366 02-11-2009 01:08:04 10.2 C 8.76 g/m*3 10.2 C 0 km/h
367 02-11-2009 01:20:04 10.2 C 8.76 g/m*3 10.2 C 0 km/h
368 02-11-2009 01:32:04 10.3 C 8.81 g/m*3 10.3 C 0 km/h
369 02-11-2009 01:44:05 10.3 C 8.91 g/m*3 10.3 C 0 km/h
370 02-11-2009 01:56:05 10.3 C 8.91 g/m*3 10.3 C 0 km/h
371 02-11-2009 02:08:05 10.5 C 9.02 g/m*3 10.5 C 0 km/h
372 02-11-2009 02:20:05 10.5 C 9.12 g/m*3 10.5 C 0 km/h
373 02-11-2009 02:32:05 10.5 C 9.12 g/m*3 10.5 C 0 km/h
374 02-11-2009 02:44:05 10.7 C 9.23 g/m*3 10.7 C 0 km/h
375 02-11-2009 02:56:05 11.2 C 9.63 g/m*3 11.2 C 0 km/h
Sensor: Nr:Datum:Temp:Abs-Feuchte:Windchill:Wind:
Aussen-T/F 376 02-11-2009 03:08:05 11.2 C 9.63 g/m*3 11.2 C 0 km/h
377 02-11-2009 03:20:05 11.1 C 9.57 g/m*3 11.1 C 0 km/h
378 02-11-2009 03:32:05 11.1 C 9.57 g/m*3 11.1 C 0 km/h
379 02-11-2009 03:44:05 10.8 C 9.39 g/m*3 10.8 C 0 km/h
380 02-11-2009 03:56:05 10.7 C 9.33 g/m*3 10.7 C 0 km/h
381 02-11-2009 04:08:05 10.5 C 9.21 g/m*3 10.5 C 0 km/h
382 02-11-2009 04:20:05 10.4 C 9.16 g/m*3 10.4 C 0 km/h
383 02-11-2009 04:32:05 10.3 C 9.1 g/m*3 10.3 C 0 km/h
384 02-11-2009 04:44:05 10.3 C 9.1 g/m*3 10.3 C 0 km/h
385 02-11-2009 04:56:05 10.3 C 9.1 g/m*3 10.3 C 0 km/h
386 02-11-2009 05:08:05 10.3 C 9.1 g/m*3 10.3 C 0 km/h
387 02-11-2009 05:20:05 10.4 C 9.16 g/m*3 10.4 C 0 km/h
388 02-11-2009 05:32:06 10.5 C 9.21 g/m*3 10.5 C 0 km/h
389 02-11-2009 05:44:06 10.5 C 9.21 g/m*3 10.5 C 0 km/h
390 02-11-2009 05:56:06 10.4 C 9.16 g/m*3 10.4 C 0 km/h
391 02-11-2009 06:08:06 10.2 C 9.04 g/m*3 10.2 C 0 km/h
392 02-11-2009 06:20:06 10.1 C 8.98 g/m*3 10.1 C 0 km/h
393 02-11-2009 06:32:06 10.1 C 8.98 g/m*3 10.1 C 0 km/h
394 02-11-2009 06:44:06 9.8 C 8.81 g/m*3 9.8 C 0 km/h
395 02-11-2009 06:56:06 9.8 C 8.81 g/m*3 9.8 C 0 km/h
396 02-11-2009 07:08:04 9.9 C 8.87 g/m*3 9.9 C 0 km/h
397 02-11-2009 07:20:04 10 C 8.93 g/m*3 10 C 0 km/h
398 02-11-2009 07:32:04 10 C 8.93 g/m*3 10 C 0 km/h
399 02-11-2009 07:44:04 10 C 8.93 g/m*3 10 C 0 km/h
400 02-11-2009 07:56:02 10.1 C 8.98 g/m*3 10.1 C 0 km/h
Sensor: Nr:Datum:Temp:Abs-Feuchte:Windchill:Wind:
Aussen-T/F 401 02-11-2009 08:08:02 10.1 C 8.98 g/m*3 10.1 C 0 km/h
402 02-11-2009 08:20:02 10.1 C 8.98 g/m*3 10.1 C 0 km/h
403 02-11-2009 08:32:02 10.2 C 9.04 g/m*3 10.2 C 0 km/h
404 02-11-2009 08:44:02 10.4 C 9.16 g/m*3 10.4 C 0 km/h
405 02-11-2009 08:56:01 10.5 C 9.21 g/m*3 10.5 C 0 km/h
406 02-11-2009 09:08:02 10.7 C 9.33 g/m*3 10.7 C 0 km/h
407 02-11-2009 09:20:01 10.8 C 9.39 g/m*3 10.8 C 0 km/h
408 02-11-2009 09:32:01 10.8 C 9.39 g/m*3 10.8 C 0 km/h
409 02-11-2009 09:44:01 10.8 C 9.39 g/m*3 10.8 C 0 km/h
410 02-11-2009 09:56:01 10.9 C 9.45 g/m*3 10.9 C 0 km/h
411 02-11-2009 10:08:02 10.9 C 9.45 g/m*3 10.9 C 0 km/h
412 02-11-2009 10:20:02 11.1 C 9.27 g/m*3 11.1 C 0 km/h
413 02-11-2009 10:32:01 11.3 C 9.18 g/m*3 11.3 C 0 km/h
414 02-11-2009 10:44:01 11.5 C 9.3 g/m*3 11.5 C 0 km/h
415 02-11-2009 10:56:01 12 C 9.38 g/m*3 12 C 0 km/h
416 02-11-2009 11:08:01 12 C 9.06 g/m*3 12 C 0 km/h
417 02-11-2009 11:20:02 12 C 9.06 g/m*3 12 C 0 km/h
418 02-11-2009 11:32:01 12.4 C 8.96 g/m*3 12.4 C 0 km/h
419 02-11-2009 11:44:01 12.4 C 8.74 g/m*3 12.4 C 0 km/h
420 02-11-2009 11:56:02 12.5 C 8.8 g/m*3 12.5 C 0 km/h
421 02-11-2009 12:08:01 12.8 C 8.74 g/m*3 12.8 C 0 km/h
422 02-11-2009 12:20:02 12.9 C 8.34 g/m*3 12.9 C 0 km/h
423 02-11-2009 12:32:01 12.9 C 8.11 g/m*3 12.9 C 0 km/h
424 02-11-2009 12:44:01 13.2 C 8.38 g/m*3 13.2 C 0 km/h
425 02-11-2009 12:56:02 13.2 C 8.04 g/m*3 13.2 C 0 km/h
Sensor: Nr:Datum:Temp:Abs-Feuchte:Windchill:Wind:
Aussen-T/F 426 02-11-2009 13:08:02 13.2 C 7.81 g/m*3 13.2 C 0 km/h
427 02-11-2009 13:20:02 13.2 C 7.81 g/m*3 13.2 C 0 km/h
428 02-11-2009 13:32:03 13 C 7.6 g/m*3 13 C 0 km/h
429 02-11-2009 13:44:03 13.1 C 7.65 g/m*3 13.1 C 0 km/h
430 02-11-2009 13:56:02 13.4 C 7.67 g/m*3 13.4 C 0 km/h
431 02-11-2009 14:08:01 13.4 C 6.86 g/m*3 13.4 C 0 km/h
432 02-11-2009 14:20:02 13.4 C 6.74 g/m*3 13.4 C 0 km/h
433 02-11-2009 14:32:02 13.4 C 6.86 g/m*3 13.4 C 0 km/h
434 02-11-2009 14:44:02 13.3 C 7.05 g/m*3 13.3 C 0 km/h
435 02-11-2009 14:56:02 13.3 C 7.05 g/m*3 13.3 C 0 km/h
436 02-11-2009 15:08:03 13 C 6.92 g/m*3 13 C 0 km/h
437 02-11-2009 15:20:02 13 C 6.92 g/m*3 13 C 0 km/h
438 02-11-2009 15:32:02 12.9 C 6.76 g/m*3 12.9 C 0 km/h
439 02-11-2009 15:44:02 12.4 C 6.88 g/m*3 12.4 C 0 km/h
440 02-11-2009 15:56:02 10.4 C 7.04 g/m*3 10.4 C 0 km/h
441 02-11-2009 16:08:02 9.7 C 7.56 g/m*3 9.7 C 0 km/h
442 02-11-2009 16:20:01 9.2 C 7.59 g/m*3 9.2 C 0 km/h
443 02-11-2009 16:32:02 9.2 C 7.68 g/m*3 9.2 C 0 km/h
444 02-11-2009 16:44:03 9.3 C 7.91 g/m*3 9.3 C 0 km/h
445 02-11-2009 16:56:02 9.2 C 7.95 g/m*3 9.2 C 0 km/h
446 02-11-2009 17:08:02 9.1 C 7.99 g/m*3 9.1 C 0 km/h
447 02-11-2009 17:20:02 9.1 C 7.99 g/m*3 9.1 C 0 km/h
448 02-11-2009 17:32:02 9 C 8.02 g/m*3 9 C 0 km/h
449 02-11-2009 17:44:02 9.1 C 8.07 g/m*3 9.1 C 0 km/h
450 02-11-2009 17:56:02 9 C 8.02 g/m*3 9 C 0 km/h
Sensor: Nr:Datum:Temp:Abs-Feuchte:Windchill:Wind:
Aussen-T/F 451 02-11-2009 18:08:02 8.9 C 8.06 g/m*3 8.9 C 0 km/h
452 02-11-2009 18:20:02 8.9 C 8.06 g/m*3 8.9 C 0 km/h
453 02-11-2009 18:32:02 8.9 C 8.15 g/m*3 8.9 C 0 km/h
454 02-11-2009 18:44:02 8.8 C 8.09 g/m*3 8.8 C 0 km/h
455 02-11-2009 18:56:02 8.8 C 8.09 g/m*3 8.8 C 0 km/h
456 02-11-2009 19:08:02 8.7 C 8.04 g/m*3 8.7 C 0 km/h
457 02-11-2009 19:20:03 8.7 C 8.04 g/m*3 8.7 C 0 km/h
458 02-11-2009 19:32:02 8.7 C 8.04 g/m*3 8.7 C 0 km/h
459 02-11-2009 19:44:02 8.7 C 7.96 g/m*3 8.7 C 0 km/h
460 02-11-2009 19:56:02 8.7 C 7.78 g/m*3 8.7 C 0 km/h
461 02-11-2009 20:08:02 8.8 C 7.66 g/m*3 8.8 C 0 km/h
462 02-11-2009 20:20:02 8.7 C 7.52 g/m*3 8.7 C 0 km/h
463 02-11-2009 20:32:02 8.7 C 7.44 g/m*3 8.7 C 0 km/h
464 02-11-2009 20:44:02 8.7 C 7.44 g/m*3 8.7 C 0 km/h
465 02-11-2009 20:56:02 8.6 C 7.3 g/m*3 8.6 C 0 km/h
466 02-11-2009 21:08:02 8.5 C 7.26 g/m*3 8.5 C 0 km/h
467 02-11-2009 21:20:02 8.4 C 7.21 g/m*3 8.4 C 0 km/h
468 02-11-2009 21:32:02 8.3 C 7 g/m*3 8.3 C 0 km/h
469 02-11-2009 21:44:02 8.1 C 6.82 g/m*3 8.1 C 0 km/h
470 02-11-2009 21:57:01 8.1 C 6.74 g/m*3 8.1 C 0 km/h
471 02-11-2009 22:09:01 8.1 C 6.66 g/m*3 8.1 C 0 km/h
472 02-11-2009 22:21:01 8.1 C 6.57 g/m*3 8.1 C 0 km/h
473 02-11-2009 22:33:01 8 C 6.53 g/m*3 8 C 0 km/h
474 02-11-2009 22:45:01 7.8 C 6.53 g/m*3 7.8 C 0 km/h
475 02-11-2009 22:57:01 7.6 C 6.53 g/m*3 7.6 C 0 km/h
Sensor: Nr:Datum:Temp:Abs-Feuchte:Windchill:Wind:
Aussen-T/F 476 02-11-2009 23:09:01 7.5 C 6.56 g/m*3 7.5 C 0 km/h
477 02-11-2009 23:21:01 7.6 C 6.69 g/m*3 7.6 C 0 km/h
478 02-11-2009 23:33:02 7.5 C 6.64 g/m*3 7.5 C 0 km/h
479 02-11-2009 23:45:02 7.4 C 6.6 g/m*3 7.4 C 0 km/h
480 02-11-2009 23:57:02 7.3 C 6.56 g/m*3 7.3 C 0 km/h
481 03-11-2009 00:09:02 7 C 6.43 g/m*3 7 C 0 km/h
482 03-11-2009 00:21:02 7 C 6.51 g/m*3 7 C 0 km/h
483 03-11-2009 00:33:02 7.1 C 6.55 g/m*3 7.1 C 0 km/h
484 03-11-2009 00:45:02 7 C 6.43 g/m*3 7 C 0 km/h
485 03-11-2009 00:57:02 7 C 6.43 g/m*3 7 C 0 km/h
486 03-11-2009 01:09:02 6.5 C 6.37 g/m*3 6.5 C 0 km/h
487 03-11-2009 01:21:02 6.3 C 6.37 g/m*3 6.3 C 0 km/h
488 03-11-2009 01:33:02 6.3 C 6.44 g/m*3 6.3 C 0 km/h
489 03-11-2009 01:45:02 6.4 C 6.48 g/m*3 6.4 C 0 km/h
490 03-11-2009 01:57:02 6.2 C 6.4 g/m*3 6.2 C 0 km/h
491 03-11-2009 02:09:02 5.9 C 6.35 g/m*3 5.9 C 0 km/h
492 03-11-2009 02:21:02 5.9 C 6.42 g/m*3 5.9 C 0 km/h
493 03-11-2009 02:33:02 6 C 6.39 g/m*3 6 C 0 km/h
494 03-11-2009 02:45:02 6.3 C 6.51 g/m*3 6.3 C 0 km/h
495 03-11-2009 02:57:02 6.4 C 6.48 g/m*3 6.4 C 0 km/h
496 03-11-2009 03:09:02 6.7 C 6.46 g/m*3 6.7 C 0 km/h
497 03-11-2009 03:21:03 6.8 C 6.42 g/m*3 6.8 C 0 km/h
498 03-11-2009 03:33:03 7 C 6.35 g/m*3 7 C 0 km/h
499 03-11-2009 03:45:03 7 C 6.2 g/m*3 7 C 0 km/h
500 03-11-2009 03:57:03 7 C 6.12 g/m*3 7 C 0 km/h
Sensor: Nr:Datum:Temp:Abs-Feuchte:Windchill:Wind:
Aussen-T/F 501 03-11-2009 04:09:03 7 C 6.12 g/m*3 7 C 0 km/h
502 03-11-2009 04:21:03 7 C 6.12 g/m*3 7 C 0 km/h
503 03-11-2009 04:33:03 6.8 C 6.12 g/m*3 6.8 C 0 km/h
504 03-11-2009 04:45:03 6.7 C 6.15 g/m*3 6.7 C 0 km/h
505 03-11-2009 04:57:03 6.7 C 6.08 g/m*3 6.7 C 0 km/h
506 03-11-2009 05:09:03 6.5 C 6.07 g/m*3 6.5 C 0 km/h
507 03-11-2009 05:21:03 6.3 C 6.07 g/m*3 6.3 C 0 km/h
508 03-11-2009 05:33:03 6 C 5.95 g/m*3 6 C 0 km/h
509 03-11-2009 05:45:03 5.8 C 5.95 g/m*3 5.8 C 0 km/h
510 03-11-2009 05:57:03 5.6 C 5.94 g/m*3 5.6 C 0 km/h
511 03-11-2009 06:09:03 5.3 C 5.89 g/m*3 5.3 C 0 km/h
512 03-11-2009 06:21:03 5.4 C 6 g/m*3 5.4 C 0 km/h
513 03-11-2009 06:33:03 5.3 C 5.96 g/m*3 5.3 C 0 km/h
514 03-11-2009 06:45:03 5 C 5.84 g/m*3 5 C 0 km/h
515 03-11-2009 06:57:03 4.8 C 5.9 g/m*3 4.8 C 0 km/h
516 03-11-2009 07:09:01 4.6 C 5.82 g/m*3 4.6 C 0 km/h
517 03-11-2009 07:21:02 4.7 C 5.93 g/m*3 4.7 C 0 km/h
518 03-11-2009 07:33:01 4.6 C 5.89 g/m*3 4.6 C 0 km/h
519 03-11-2009 07:45:02 4.5 C 5.85 g/m*3 4.5 C 0 km/h
520 03-11-2009 07:57:02 4.2 C 5.73 g/m*3 4.2 C 0 km/h
521 03-11-2009 08:09:02 4.1 C 5.7 g/m*3 4.1 C 0 km/h
522 03-11-2009 08:21:02 4 C 5.72 g/m*3 4 C 0 km/h
523 03-11-2009 08:33:02 4 C 5.72 g/m*3 4 C 0 km/h
524 03-11-2009 08:45:02 4.1 C 5.82 g/m*3 4.1 C 0 km/h
525 03-11-2009 08:57:02 4.2 C 5.93 g/m*3 4.2 C 0 km/h
Sensor: Nr:Datum:Temp:Abs-Feuchte:Windchill:Wind:
Aussen-T/F 526 03-11-2009 09:09:01 4.3 C 5.97 g/m*3 4.3 C 0 km/h
527 03-11-2009 09:21:02 5 C 6.25 g/m*3 5 C 0 km/h
528 03-11-2009 09:33:02 5.8 C 6.66 g/m*3 5.8 C 0 km/h
529 03-11-2009 09:45:02 6.4 C 6.85 g/m*3 6.4 C 0 km/h
530 03-11-2009 09:57:02 6.8 C 6.96 g/m*3 6.8 C 0 km/h
531 03-11-2009 10:09:02 7.1 C 6.94 g/m*3 7.1 C 0 km/h
532 03-11-2009 10:21:02 7.3 C 6.87 g/m*3 7.3 C 0 km/h
533 03-11-2009 10:33:02 7.5 C 6.8 g/m*3 7.5 C 0 km/h
534 03-11-2009 10:45:01 7.8 C 6.53 g/m*3 7.8 C 0 km/h
535 03-11-2009 10:57:01 7.8 C 6.45 g/m*3 7.8 C 0 km/h
536 03-11-2009 11:09:02 8.4 C 6.28 g/m*3 8.4 C 0 km/h
537 03-11-2009 11:21:01 9 C 6.08 g/m*3 9 C 0 km/h
538 03-11-2009 11:33:01 8.5 C 5.72 g/m*3 8.5 C 0 km/h
539 03-11-2009 11:45:01 8.5 C 5.72 g/m*3 8.5 C 0 km/h
540 03-11-2009 11:57:01 8.6 C 5.93 g/m*3 8.6 C 0 km/h
541 03-11-2009 12:09:02 9.4 C 6.24 g/m*3 9.4 C 0 km/h
542 03-11-2009 12:21:01 9.8 C 5.94 g/m*3 9.8 C 0 km/h
543 03-11-2009 12:33:01 9.8 C 5.75 g/m*3 9.8 C 0 km/h
544 03-11-2009 12:45:01 10.2 C 5.71 g/m*3 10.2 C 0 km/h
545 03-11-2009 12:57:01 10.8 C 5.73 g/m*3 10.8 C 0 km/h
546 03-11-2009 13:09:02 11 C 5.31 g/m*3 11 C 0 km/h
547 03-11-2009 13:21:02 11.1 C 5.04 g/m*3 11.1 C 0 km/h
548 03-11-2009 13:33:01 11.7 C 5.23 g/m*3 11.7 C 0 km/h
549 03-11-2009 13:45:01 11.3 C 4.79 g/m*3 11.3 C 0 km/h
550 03-11-2009 13:57:01 11.1 C 4.94 g/m*3 11.1 C 0 km/h
Sensor: Nr:Datum:Temp:Abs-Feuchte:Windchill:Wind:
Aussen-T/F 551 03-11-2009 14:09:01 10.9 C 5.07 g/m*3 10.9 C 0 km/h
552 03-11-2009 14:21:02 10.6 C 5.08 g/m*3 10.6 C 0 km/h
553 03-11-2009 14:33:01 10.6 C 5.17 g/m*3 10.6 C 0 km/h
554 03-11-2009 14:45:03 11 C 5.1 g/m*3 11 C 0 km/h
555 03-11-2009 14:57:03 11 C 5 g/m*3 11 C 0 km/h
556 03-11-2009 15:09:02 10.9 C 5.07 g/m*3 10.9 C 0 km/h
557 03-11-2009 15:21:02 10.8 C 5.14 g/m*3 10.8 C 0 km/h
558 03-11-2009 15:33:02 10.5 C 5.14 g/m*3 10.5 C 0 km/h
559 03-11-2009 15:45:02 10.3 C 5.17 g/m*3 10.3 C 0 km/h
560 03-11-2009 15:57:02 10.2 C 5.04 g/m*3 10.2 C 0 km/h
561 03-11-2009 16:09:02 10.2 C 5.14 g/m*3 10.2 C 0 km/h
562 03-11-2009 16:21:02 10.1 C 5.11 g/m*3 10.1 C 0 km/h
563 03-11-2009 16:33:01 10 C 5.17 g/m*3 10 C 0 km/h
564 03-11-2009 16:45:02 9.9 C 5.42 g/m*3 9.9 C 0 km/h
565 03-11-2009 16:57:02 9.8 C 5.38 g/m*3 9.8 C 0 km/h
566 03-11-2009 17:09:01 9.7 C 5.44 g/m*3 9.7 C 0 km/h
567 03-11-2009 17:21:01 9.7 C 5.53 g/m*3 9.7 C 0 km/h
568 03-11-2009 17:33:02 9.6 C 5.59 g/m*3 9.6 C 0 km/h
569 03-11-2009 17:45:02 9.6 C 5.68 g/m*3 9.6 C 0 km/h
570 03-11-2009 17:57:02 9.4 C 5.7 g/m*3 9.4 C 0 km/h
571 03-11-2009 18:09:01 9.2 C 5.89 g/m*3 9.2 C 0 km/h
572 03-11-2009 18:21:02 8.9 C 6.04 g/m*3 8.9 C 0 km/h
573 03-11-2009 18:33:02 8.9 C 6.31 g/m*3 8.9 C 0 km/h
574 03-11-2009 18:45:02 8.7 C 6.31 g/m*3 8.7 C 0 km/h
575 03-11-2009 18:57:02 8.7 C 6.49 g/m*3 8.7 C 0 km/h
Sensor: Nr:Datum:Temp:Abs-Feuchte:Windchill:Wind:
Aussen-T/F 576 03-11-2009 19:09:03 8.9 C 6.48 g/m*3 8.9 C 0 km/h
577 03-11-2009 19:21:02 9 C 6.52 g/m*3 9 C 0 km/h
578 03-11-2009 19:33:03 9 C 6.44 g/m*3 9 C 0 km/h
579 03-11-2009 19:45:02 9.1 C 6.48 g/m*3 9.1 C 0 km/h
580 03-11-2009 19:57:02 9.1 C 6.48 g/m*3 9.1 C 0 km/h
581 03-11-2009 20:09:02 9.1 C 6.48 g/m*3 9.1 C 0 km/h
582 03-11-2009 20:21:01 9.1 C 6.57 g/m*3 9.1 C 0 km/h
583 03-11-2009 20:33:02 9.4 C 6.6 g/m*3 9.4 C 0 km/h
584 03-11-2009 20:45:02 9.3 C 6.56 g/m*3 9.3 C 0 km/h
585 03-11-2009 20:57:02 9.4 C 6.6 g/m*3 9.4 C 0 km/h
586 03-11-2009 21:09:02 9.4 C 6.6 g/m*3 9.4 C 0 km/h
587 03-11-2009 21:21:02 9.4 C 6.69 g/m*3 9.4 C 0 km/h
588 03-11-2009 21:33:01 9.3 C 6.65 g/m*3 9.3 C 0 km/h
589 03-11-2009 21:45:02 9.4 C 6.78 g/m*3 9.4 C 0 km/h
590 03-11-2009 21:57:02 9.4 C 6.78 g/m*3 9.4 C 0 km/h
591 03-11-2009 22:09:02 9.4 C 6.87 g/m*3 9.4 C 0 km/h
592 03-11-2009 22:22:01 9.4 C 7.05 g/m*3 9.4 C 0 km/h
593 03-11-2009 22:34:01 9.6 C 7.15 g/m*3 9.6 C 0 km/h
594 03-11-2009 22:46:01 9.9 C 7.28 g/m*3 9.9 C 0 km/h
595 03-11-2009 22:58:01 10 C 7.14 g/m*3 10 C 0 km/h
596 03-11-2009 23:10:01 10.1 C 7.19 g/m*3 10.1 C 0 km/h
597 03-11-2009 23:22:01 10.2 C 7.33 g/m*3 10.2 C 0 km/h
598 03-11-2009 23:34:01 10.3 C 7.37 g/m*3 10.3 C 0 km/h
599 03-11-2009 23:46:01 10.5 C 7.37 g/m*3 10.5 C 0 km/h
600 03-11-2009 23:58:01 10.5 C 7.37 g/m*3 10.5 C 0 km/h
Sensor: Nr:Datum:Temp:Abs-Feuchte:Windchill:Wind:
Aussen-T/F 601 04-11-2009 00:10:01 10.2 C 7.42 g/m*3 10.2 C 0 km/h
602 04-11-2009 00:22:02 10 C 7.52 g/m*3 10 C 0 km/h
603 04-11-2009 00:34:02 10 C 7.61 g/m*3 10 C 0 km/h
604 04-11-2009 00:46:02 9.9 C 7.84 g/m*3 9.9 C 0 km/h
605 04-11-2009 00:58:02 10 C 7.8 g/m*3 10 C 0 km/h
606 04-11-2009 01:10:02 10 C 7.89 g/m*3 10 C 0 km/h
607 04-11-2009 01:22:02 10 C 7.99 g/m*3 10 C 0 km/h
608 04-11-2009 01:34:02 10 C 7.99 g/m*3 10 C 0 km/h
609 04-11-2009 01:46:02 9.9 C 8.12 g/m*3 9.9 C 0 km/h
610 04-11-2009 01:58:02 9.8 C 8.07 g/m*3 9.8 C 0 km/h
611 04-11-2009 02:10:02 9.7 C 8.11 g/m*3 9.7 C 0 km/h
612 04-11-2009 02:22:02 9.7 C 8.11 g/m*3 9.7 C 0 km/h
613 04-11-2009 02:34:02 9.8 C 8.26 g/m*3 9.8 C 0 km/h
614 04-11-2009 02:46:02 10.2 C 8.56 g/m*3 10.2 C 0 km/h
615 04-11-2009 02:58:02 10.1 C 8.61 g/m*3 10.1 C 0 km/h
616 04-11-2009 03:10:02 10 C 8.55 g/m*3 10 C 0 km/h
617 04-11-2009 03:22:02 9.9 C 8.68 g/m*3 9.9 C 0 km/h
618 04-11-2009 03:34:02 9.9 C 8.68 g/m*3 9.9 C 0 km/h
619 04-11-2009 03:46:02 9.8 C 8.63 g/m*3 9.8 C 0 km/h
620 04-11-2009 03:58:02 9.6 C 8.52 g/m*3 9.6 C 0 km/h
621 04-11-2009 04:10:03 9.7 C 8.57 g/m*3 9.7 C 0 km/h
622 04-11-2009 04:22:03 9.7 C 8.67 g/m*3 9.7 C 0 km/h
623 04-11-2009 04:34:03 9.6 C 8.61 g/m*3 9.6 C 0 km/h
624 04-11-2009 04:46:03 9.4 C 8.5 g/m*3 9.4 C 0 km/h
625 04-11-2009 04:58:03 9.3 C 8.36 g/m*3 9.3 C 0 km/h
Sensor: Nr:Datum:Temp:Abs-Feuchte:Windchill:Wind:
Aussen-T/F 626 04-11-2009 05:10:03 9.2 C 8.3 g/m*3 9.2 C 0 km/h
627 04-11-2009 05:22:03 9.2 C 8.3 g/m*3 9.2 C 0 km/h
628 04-11-2009 05:34:03 9.1 C 8.25 g/m*3 9.1 C 0 km/h
629 04-11-2009 05:46:03 9.1 C 8.25 g/m*3 9.1 C 0 km/h
630 04-11-2009 05:58:03 8.9 C 8.23 g/m*3 8.9 C 0 km/h
631 04-11-2009 06:10:03 8.6 C 7.99 g/m*3 8.6 C 0 km/h
632 04-11-2009 06:22:03 8.4 C 7.89 g/m*3 8.4 C 0 km/h
633 04-11-2009 06:34:03 8 C 7.61 g/m*3 8 C 0 km/h
634 04-11-2009 06:46:01 7.7 C 7.46 g/m*3 7.7 C 0 km/h
635 04-11-2009 06:58:01 7.3 C 7.19 g/m*3 7.3 C 0 km/h
636 04-11-2009 07:10:01 7.4 C 7.24 g/m*3 7.4 C 0 km/h
637 04-11-2009 07:22:02 7.5 C 7.28 g/m*3 7.5 C 0 km/h
638 04-11-2009 07:34:01 7.6 C 7.09 g/m*3 7.6 C 0 km/h
639 04-11-2009 07:46:02 7.7 C 7.05 g/m*3 7.7 C 0 km/h
640 04-11-2009 07:58:02 7.6 C 7.01 g/m*3 7.6 C 0 km/h
641 04-11-2009 08:10:01 7.6 C 7.09 g/m*3 7.6 C 0 km/h
642 04-11-2009 08:22:01 7.8 C 7.26 g/m*3 7.8 C 0 km/h
643 04-11-2009 08:34:01 8 C 7.28 g/m*3 8 C 0 km/h
644 04-11-2009 08:46:02 8.1 C 7.24 g/m*3 8.1 C 0 km/h
645 04-11-2009 08:58:02 7.9 C 7.31 g/m*3 7.9 C 0 km/h
646 04-11-2009 09:10:02 7.8 C 7.26 g/m*3 7.8 C 0 km/h
647 04-11-2009 09:22:02 7.9 C 7.39 g/m*3 7.9 C 0 km/h
648 04-11-2009 09:34:02 7.9 C 7.39 g/m*3 7.9 C 0 km/h
649 04-11-2009 09:46:02 7.9 C 7.31 g/m*3 7.9 C 0 km/h
650 04-11-2009 09:58:02 7.6 C 7.01 g/m*3 7.6 C 0 km/h
Sensor: Nr:Datum:Temp:Abs-Feuchte:Windchill:Wind:
Aussen-T/F 651 04-11-2009 10:10:01 7.7 C 6.89 g/m*3 7.7 C 0 km/h
652 04-11-2009 10:22:02 7.9 C 6.9 g/m*3 7.9 C 0 km/h
653 04-11-2009 10:34:02 8 C 6.7 g/m*3 8 C 0 km/h
654 04-11-2009 10:46:02 8 C 6.61 g/m*3 8 C 0 km/h
655 04-11-2009 10:58:02 8.1 C 6.74 g/m*3 8.1 C 0 km/h
656 04-11-2009 11:10:03 8.1 C 6.82 g/m*3 8.1 C 0 km/h
657 04-11-2009 11:22:02 8.4 C 6.87 g/m*3 8.4 C 0 km/h
658 04-11-2009 11:34:02 8.5 C 7 g/m*3 8.5 C 0 km/h
659 04-11-2009 11:46:01 8.6 C 6.87 g/m*3 8.6 C 0 km/h
660 04-11-2009 11:58:01 9 C 6.88 g/m*3 9 C 0 km/h
661 04-11-2009 12:10:02 8.9 C 6.75 g/m*3 8.9 C 0 km/h
662 04-11-2009 12:22:01 8.7 C 6.92 g/m*3 8.7 C 0 km/h
663 04-11-2009 12:34:02 8.4 C 6.96 g/m*3 8.4 C 0 km/h
664 04-11-2009 12:46:01 8.4 C 6.79 g/m*3 8.4 C 0 km/h
665 04-11-2009 12:58:01 8.9 C 6.66 g/m*3 8.9 C 0 km/h
666 04-11-2009 13:10:02 9.6 C 6.5 g/m*3 9.6 C 0 km/h
667 04-11-2009 13:22:01 10.2 C 6.57 g/m*3 10.2 C 0 km/h
668 04-11-2009 13:34:02 9.9 C 6.16 g/m*3 9.9 C 0 km/h
669 04-11-2009 13:46:01 9.8 C 6.12 g/m*3 9.8 C 0 km/h
670 04-11-2009 13:58:01 10.1 C 6.24 g/m*3 10.1 C 0 km/h
671 04-11-2009 14:10:02 10.8 C 6.42 g/m*3 10.8 C 0 km/h
672 04-11-2009 14:22:02 11.2 C 6.08 g/m*3 11.2 C 0 km/h
673 04-11-2009 14:34:02 10.1 C 5.77 g/m*3 10.1 C 0 km/h
674 04-11-2009 14:46:02 10.2 C 5.9 g/m*3 10.2 C 0 km/h
675 04-11-2009 14:58:02 10.4 C 5.98 g/m*3 10.4 C 0 km/h
Sensor: Nr:Datum:Temp:Abs-Feuchte:Windchill:Wind:
Aussen-T/F 676 04-11-2009 15:10:02 10.1 C 5.86 g/m*3 10.1 C 0 km/h
677 04-11-2009 15:22:02 9.9 C 5.98 g/m*3 9.9 C 0 km/h
678 04-11-2009 15:34:01 9.6 C 5.95 g/m*3 9.6 C 0 km/h
679 04-11-2009 15:46:02 9.6 C 5.95 g/m*3 9.6 C 0 km/h
680 04-11-2009 15:58:02 9.6 C 6.05 g/m*3 9.6 C 0 km/h
681 04-11-2009 16:10:01 9.6 C 6.14 g/m*3 9.6 C 0 km/h
682 04-11-2009 16:22:02 9.6 C 6.23 g/m*3 9.6 C 0 km/h
683 04-11-2009 16:34:01 9.3 C 6.2 g/m*3 9.3 C 0 km/h
684 04-11-2009 16:46:02 8.8 C 6.53 g/m*3 8.8 C 0 km/h
685 04-11-2009 16:58:03 8.3 C 6.66 g/m*3 8.3 C 0 km/h
686 04-11-2009 17:10:02 8 C 6.7 g/m*3 8 C 0 km/h
687 04-11-2009 17:22:02 8.1 C 6.74 g/m*3 8.1 C 0 km/h
688 04-11-2009 17:34:03 8.2 C 6.78 g/m*3 8.2 C 0 km/h
689 04-11-2009 17:46:02 8.3 C 6.83 g/m*3 8.3 C 0 km/h
690 04-11-2009 17:58:02 8.1 C 6.74 g/m*3 8.1 C 0 km/h
691 04-11-2009 18:10:02 8.1 C 6.91 g/m*3 8.1 C 0 km/h
692 04-11-2009 18:22:02 8 C 6.94 g/m*3 8 C 0 km/h
693 04-11-2009 18:34:02 8.1 C 6.99 g/m*3 8.1 C 0 km/h
694 04-11-2009 18:46:02 8.2 C 6.87 g/m*3 8.2 C 0 km/h
695 04-11-2009 18:58:02 8.2 C 6.7 g/m*3 8.2 C 0 km/h
696 04-11-2009 19:10:03 8.2 C 6.53 g/m*3 8.2 C 0 km/h
697 04-11-2009 19:22:02 8.2 C 6.53 g/m*3 8.2 C 0 km/h
698 04-11-2009 19:34:02 8.3 C 6.41 g/m*3 8.3 C 0 km/h
699 04-11-2009 19:46:01 8.3 C 6.32 g/m*3 8.3 C 0 km/h
700 04-11-2009 19:58:01 8.3 C 6.24 g/m*3 8.3 C 0 km/h
Sensor: Nr:Datum:Temp:Abs-Feuchte:Windchill:Wind:
Aussen-T/F 701 04-11-2009 20:10:02 8.2 C 6.11 g/m*3 8.2 C 0 km/h
702 04-11-2009 20:22:01 8.2 C 6.11 g/m*3 8.2 C 0 km/h
703 04-11-2009 20:34:02 8.1 C 6.07 g/m*3 8.1 C 0 km/h
704 04-11-2009 20:46:01 8.1 C 6.16 g/m*3 8.1 C 0 km/h
705 04-11-2009 20:58:01 8.1 C 6.07 g/m*3 8.1 C 0 km/h
706 04-11-2009 21:10:02 8.1 C 6.16 g/m*3 8.1 C 0 km/h
707 04-11-2009 21:22:01 7.9 C 6.08 g/m*3 7.9 C 0 km/h
708 04-11-2009 21:34:02 7.7 C 6.08 g/m*3 7.7 C 0 km/h
709 04-11-2009 21:46:02 7.5 C 6.08 g/m*3 7.5 C 0 km/h
710 04-11-2009 21:58:02 7.3 C 6 g/m*3 7.3 C 0 km/h
711 04-11-2009 22:10:02 7.3 C 6.08 g/m*3 7.3 C 0 km/h
712 04-11-2009 22:23:03 7.7 C 6.08 g/m*3 7.7 C 0 km/h
713 04-11-2009 22:35:03 7.6 C 6.12 g/m*3 7.6 C 0 km/h
714 04-11-2009 22:47:03 7.7 C 6.16 g/m*3 7.7 C 0 km/h
715 04-11-2009 22:59:03 7.8 C 6.12 g/m*3 7.8 C 0 km/h
716 04-11-2009 23:11:03 7.9 C 6.16 g/m*3 7.9 C 0 km/h
717 04-11-2009 23:23:03 7.9 C 6.24 g/m*3 7.9 C 0 km/h
718 04-11-2009 23:35:03 7.9 C 6.16 g/m*3 7.9 C 0 km/h
719 04-11-2009 23:47:03 8 C 6.04 g/m*3 8 C 0 km/h
720 04-11-2009 23:59:04 8.1 C 6.07 g/m*3 8.1 C 0 km/h
721 05-11-2009 00:11:04 8.1 C 6.07 g/m*3 8.1 C 0 km/h
722 05-11-2009 00:23:04 7.9 C 6.16 g/m*3 7.9 C 0 km/h
723 05-11-2009 00:35:04 8.1 C 6.16 g/m*3 8.1 C 0 km/h
724 05-11-2009 00:47:04 8.2 C 6.11 g/m*3 8.2 C 0 km/h
725 05-11-2009 00:59:04 8.3 C 6.15 g/m*3 8.3 C 0 km/h
Sensor: Nr:Datum:Temp:Abs-Feuchte:Windchill:Wind:
Aussen-T/F 726 05-11-2009 01:11:04 8.2 C 6.11 g/m*3 8.2 C 0 km/h
727 05-11-2009 01:23:04 8.2 C 6.11 g/m*3 8.2 C 0 km/h
728 05-11-2009 01:35:04 8.4 C 6.02 g/m*3 8.4 C 0 km/h
729 05-11-2009 01:47:04 8.2 C 5.95 g/m*3 8.2 C 0 km/h
730 05-11-2009 01:59:04 8 C 5.87 g/m*3 8 C 0 km/h
731 05-11-2009 02:11:04 8 C 5.79 g/m*3 8 C 0 km/h
732 05-11-2009 02:23:04 8.2 C 5.86 g/m*3 8.2 C 0 km/h
733 05-11-2009 02:35:04 8.4 C 5.85 g/m*3 8.4 C 0 km/h
734 05-11-2009 02:47:04 8.5 C 5.81 g/m*3 8.5 C 0 km/h
735 05-11-2009 02:59:04 8.6 C 5.76 g/m*3 8.6 C 0 km/h
736 05-11-2009 03:11:04 8.5 C 5.72 g/m*3 8.5 C 0 km/h
737 05-11-2009 03:23:04 8.6 C 5.76 g/m*3 8.6 C 0 km/h
738 05-11-2009 03:35:04 8.7 C 5.79 g/m*3 8.7 C 0 km/h
739 05-11-2009 03:47:04 8.7 C 5.79 g/m*3 8.7 C 0 km/h
740 05-11-2009 03:59:05 8.7 C 5.71 g/m*3 8.7 C 0 km/h
741 05-11-2009 04:11:05 8.7 C 5.71 g/m*3 8.7 C 0 km/h
742 05-11-2009 04:23:05 8.2 C 6.03 g/m*3 8.2 C 0 km/h
743 05-11-2009 04:35:05 7.8 C 6.28 g/m*3 7.8 C 0 km/h
744 05-11-2009 04:47:05 7.7 C 6.41 g/m*3 7.7 C 0 km/h
745 05-11-2009 04:59:05 7.8 C 6.53 g/m*3 7.8 C 0 km/h
746 05-11-2009 05:11:05 7.7 C 6.49 g/m*3 7.7 C 0 km/h
747 05-11-2009 05:23:05 7.8 C 6.45 g/m*3 7.8 C 0 km/h
748 05-11-2009 05:35:05 7.8 C 6.45 g/m*3 7.8 C 0 km/h
749 05-11-2009 05:47:05 7.6 C 6.61 g/m*3 7.6 C 0 km/h
750 05-11-2009 05:59:05 7.5 C 6.64 g/m*3 7.5 C 0 km/h
Sensor: Nr:Datum:Temp:Abs-Feuchte:Windchill:Wind:
Aussen-T/F 751 05-11-2009 06:11:05 7.4 C 6.6 g/m*3 7.4 C 0 km/h
752 05-11-2009 06:23:05 7.3 C 6.56 g/m*3 7.3 C 0 km/h
753 05-11-2009 06:35:05 7.3 C 6.64 g/m*3 7.3 C 0 km/h
754 05-11-2009 06:47:05 7.3 C 6.72 g/m*3 7.3 C 0 km/h
755 05-11-2009 06:59:05 7.4 C 6.68 g/m*3 7.4 C 0 km/h
756 05-11-2009 07:11:03 7.5 C 6.72 g/m*3 7.5 C 0 km/h
757 05-11-2009 07:23:02 7.3 C 6.64 g/m*3 7.3 C 0 km/h
758 05-11-2009 07:35:03 7.3 C 6.64 g/m*3 7.3 C 0 km/h
759 05-11-2009 07:47:02 7.6 C 6.69 g/m*3 7.6 C 0 km/h
760 05-11-2009 07:59:02 7.8 C 6.69 g/m*3 7.8 C 0 km/h
761 05-11-2009 08:11:02 7.9 C 6.57 g/m*3 7.9 C 0 km/h
762 05-11-2009 08:23:01 8.1 C 6.49 g/m*3 8.1 C 0 km/h
763 05-11-2009 08:35:02 8.1 C 6.49 g/m*3 8.1 C 0 km/h
764 05-11-2009 08:47:02 8.2 C 6.53 g/m*3 8.2 C 0 km/h
765 05-11-2009 08:59:02 8.4 C 6.53 g/m*3 8.4 C 0 km/h
766 05-11-2009 09:11:02 8.6 C 6.44 g/m*3 8.6 C 0 km/h
767 05-11-2009 09:23:02 8.9 C 6.39 g/m*3 8.9 C 0 km/h
768 05-11-2009 09:35:02 9 C 6.26 g/m*3 9 C 0 km/h
769 05-11-2009 09:47:01 8.9 C 6.39 g/m*3 8.9 C 0 km/h
770 05-11-2009 09:59:01 9 C 6.26 g/m*3 9 C 0 km/h
771 05-11-2009 10:11:02 9.2 C 6.16 g/m*3 9.2 C 0 km/h
772 05-11-2009 10:23:02 9.4 C 6.15 g/m*3 9.4 C 0 km/h
773 05-11-2009 10:35:02 9.8 C 6.22 g/m*3 9.8 C 0 km/h
774 05-11-2009 10:47:02 10.1 C 6.05 g/m*3 10.1 C 0 km/h
775 05-11-2009 10:59:02 10.1 C 6.05 g/m*3 10.1 C 0 km/h
Sensor: Nr:Datum:Temp:Abs-Feuchte:Windchill:Wind:
Aussen-T/F 776 05-11-2009 11:11:02 10.2 C 6.09 g/m*3 10.2 C 0 km/h
777 05-11-2009 11:23:02 10.2 C 6 g/m*3 10.2 C 0 km/h
778 05-11-2009 11:35:01 9.8 C 6.03 g/m*3 9.8 C 0 km/h
779 05-11-2009 11:47:02 9.8 C 6.12 g/m*3 9.8 C 0 km/h
780 05-11-2009 11:59:02 10.1 C 6.05 g/m*3 10.1 C 0 km/h
781 05-11-2009 12:11:01 10.4 C 6.07 g/m*3 10.4 C 0 km/h
782 05-11-2009 12:23:02 10.9 C 6.07 g/m*3 10.9 C 0 km/h
783 05-11-2009 12:35:02 11 C 5.81 g/m*3 11 C 0 km/h
784 05-11-2009 12:47:02 11.7 C 5.86 g/m*3 11.7 C 0 km/h
785 05-11-2009 12:59:03 11.5 C 5.68 g/m*3 11.5 C 0 km/h
786 05-11-2009 13:11:02 11.5 C 5.68 g/m*3 11.5 C 0 km/h
787 05-11-2009 13:23:02 11.5 C 5.68 g/m*3 11.5 C 0 km/h
788 05-11-2009 13:35:02 11.7 C 5.75 g/m*3 11.7 C 0 km/h
789 05-11-2009 13:47:02 11.8 C 5.68 g/m*3 11.8 C 0 km/h
790 05-11-2009 13:59:02 11.5 C 5.68 g/m*3 11.5 C 0 km/h
791 05-11-2009 14:11:02 11.4 C 5.54 g/m*3 11.4 C 0 km/h
792 05-11-2009 14:23:01 11.3 C 5.51 g/m*3 11.3 C 0 km/h
793 05-11-2009 14:35:02 11.1 C 5.74 g/m*3 11.1 C 0 km/h
794 05-11-2009 14:47:02 11.1 C 5.64 g/m*3 11.1 C 0 km/h
795 05-11-2009 14:59:02 11.1 C 5.64 g/m*3 11.1 C 0 km/h
796 05-11-2009 15:11:02 11 C 5.51 g/m*3 11 C 0 km/h
797 05-11-2009 15:23:02 10.9 C 5.67 g/m*3 10.9 C 0 km/h
798 05-11-2009 15:35:02 10.9 C 5.67 g/m*3 10.9 C 0 km/h
799 05-11-2009 15:47:02 10.8 C 5.73 g/m*3 10.8 C 0 km/h
800 05-11-2009 15:59:02 10.6 C 5.66 g/m*3 10.6 C 0 km/h
Sensor: Nr:Datum:Temp:Abs-Feuchte:Windchill:Wind:
Aussen-T/F 801 05-11-2009 16:11:02 10.5 C 5.72 g/m*3 10.5 C 0 km/h
802 05-11-2009 16:23:02 10.4 C 5.69 g/m*3 10.4 C 0 km/h
803 05-11-2009 16:35:02 10.4 C 5.69 g/m*3 10.4 C 0 km/h
804 05-11-2009 16:47:02 10.4 C 5.69 g/m*3 10.4 C 0 km/h
805 05-11-2009 16:59:02 10.4 C 5.69 g/m*3 10.4 C 0 km/h
806 05-11-2009 17:11:02 10.3 C 5.75 g/m*3 10.3 C 0 km/h
807 05-11-2009 17:23:02 10.2 C 5.71 g/m*3 10.2 C 0 km/h
808 05-11-2009 17:35:02 10.1 C 5.77 g/m*3 10.1 C 0 km/h
809 05-11-2009 17:47:02 10.1 C 5.77 g/m*3 10.1 C 0 km/h
810 05-11-2009 17:59:02 9.7 C 5.99 g/m*3 9.7 C 0 km/h
811 05-11-2009 18:11:02 9.8 C 6.12 g/m*3 9.8 C 0 km/h
812 05-11-2009 18:23:02 10 C 5.92 g/m*3 10 C 0 km/h
813 05-11-2009 18:35:02 10 C 5.92 g/m*3 10 C 0 km/h
814 05-11-2009 18:47:02 10 C 5.92 g/m*3 10 C 0 km/h
815 05-11-2009 18:59:02 10 C 5.92 g/m*3 10 C 0 km/h
816 05-11-2009 19:11:02 10 C 5.92 g/m*3 10 C 0 km/h
817 05-11-2009 19:23:02 10 C 6.01 g/m*3 10 C 0 km/h
818 05-11-2009 19:35:01 9.9 C 6.16 g/m*3 9.9 C 0 km/h
819 05-11-2009 19:47:02 9.9 C 6.26 g/m*3 9.9 C 0 km/h
820 05-11-2009 19:59:02 9.8 C 6.22 g/m*3 9.8 C 0 km/h
821 05-11-2009 20:11:01 9.8 C 6.31 g/m*3 9.8 C 0 km/h
822 05-11-2009 20:23:01 9.8 C 6.31 g/m*3 9.8 C 0 km/h
823 05-11-2009 20:35:02 9.7 C 6.36 g/m*3 9.7 C 0 km/h
824 05-11-2009 20:47:02 9.7 C 6.45 g/m*3 9.7 C 0 km/h
825 05-11-2009 20:59:02 9.7 C 6.45 g/m*3 9.7 C 0 km/h
Sensor: Nr:Datum:Temp:Abs-Feuchte:Windchill:Wind:
Aussen-T/F 826 05-11-2009 21:11:02 9.6 C 6.5 g/m*3 9.6 C 0 km/h
827 05-11-2009 21:23:02 9.5 C 6.55 g/m*3 9.5 C 0 km/h
828 05-11-2009 21:35:02 9.5 C 6.55 g/m*3 9.5 C 0 km/h
829 05-11-2009 21:47:01 9.3 C 6.56 g/m*3 9.3 C 0 km/h
830 05-11-2009 21:59:01 9.3 C 6.92 g/m*3 9.3 C 0 km/h
831 05-11-2009 22:11:01 9 C 6.96 g/m*3 9 C 0 km/h
832 05-11-2009 22:24:02 9.4 C 7.15 g/m*3 9.4 C 0 km/h
833 05-11-2009 22:36:02 9 C 6.88 g/m*3 9 C 0 km/h
834 05-11-2009 22:48:02 8.9 C 6.83 g/m*3 8.9 C 0 km/h
835 05-11-2009 23:00:02 8.9 C 6.83 g/m*3 8.9 C 0 km/h
836 05-11-2009 23:12:02 9.1 C 6.74 g/m*3 9.1 C 0 km/h
837 05-11-2009 23:24:02 9.1 C 6.83 g/m*3 9.1 C 0 km/h
838 05-11-2009 23:36:02 9.1 C 6.83 g/m*3 9.1 C 0 km/h
839 05-11-2009 23:48:02 9.3 C 6.83 g/m*3 9.3 C 0 km/h
840 06-11-2009 00:00:02 9.3 C 6.56 g/m*3 9.3 C 0 km/h
841 06-11-2009 00:12:02 9.1 C 6.48 g/m*3 9.1 C 0 km/h
842 06-11-2009 00:24:02 8.9 C 6.57 g/m*3 8.9 C 0 km/h
843 06-11-2009 00:36:02 8.9 C 6.57 g/m*3 8.9 C 0 km/h
844 06-11-2009 00:48:02 8.9 C 6.57 g/m*3 8.9 C 0 km/h
845 06-11-2009 01:00:03 9.1 C 6.48 g/m*3 9.1 C 0 km/h
846 06-11-2009 01:12:03 9.2 C 6.43 g/m*3 9.2 C 0 km/h
847 06-11-2009 01:24:03 9.2 C 6.52 g/m*3 9.2 C 0 km/h
848 06-11-2009 01:36:03 9.2 C 6.52 g/m*3 9.2 C 0 km/h
849 06-11-2009 01:48:03 9.2 C 6.52 g/m*3 9.2 C 0 km/h
850 06-11-2009 02:00:03 9 C 6.44 g/m*3 9 C 0 km/h
Sensor: Nr:Datum:Temp:Abs-Feuchte:Windchill:Wind:
Aussen-T/F 851 06-11-2009 02:12:03 8.9 C 6.57 g/m*3 8.9 C 0 km/h
852 06-11-2009 02:24:03 9 C 6.52 g/m*3 9 C 0 km/h
853 06-11-2009 02:36:03 9 C 6.52 g/m*3 9 C 0 km/h
854 06-11-2009 02:48:03 9.1 C 6.57 g/m*3 9.1 C 0 km/h
855 06-11-2009 03:00:03 9 C 6.52 g/m*3 9 C 0 km/h
856 06-11-2009 03:12:03 8.8 C 6.53 g/m*3 8.8 C 0 km/h
857 06-11-2009 03:24:03 8.9 C 6.57 g/m*3 8.9 C 0 km/h
858 06-11-2009 03:36:03 8.9 C 6.57 g/m*3 8.9 C 0 km/h
859 06-11-2009 03:48:03 9 C 6.52 g/m*3 9 C 0 km/h
860 06-11-2009 04:00:03 9 C 6.61 g/m*3 9 C 0 km/h
861 06-11-2009 04:12:03 9 C 6.61 g/m*3 9 C 0 km/h
862 06-11-2009 04:24:03 9 C 6.61 g/m*3 9 C 0 km/h
863 06-11-2009 04:36:03 9 C 6.61 g/m*3 9 C 0 km/h
864 06-11-2009 04:48:04 9 C 6.7 g/m*3 9 C 0 km/h
865 06-11-2009 05:00:04 8.8 C 6.7 g/m*3 8.8 C 0 km/h
866 06-11-2009 05:12:04 8.9 C 6.83 g/m*3 8.9 C 0 km/h
867 06-11-2009 05:24:04 9 C 6.79 g/m*3 9 C 0 km/h
868 06-11-2009 05:36:04 9 C 6.79 g/m*3 9 C 0 km/h
869 06-11-2009 05:48:04 9 C 6.79 g/m*3 9 C 0 km/h
870 06-11-2009 06:00:04 9.1 C 6.83 g/m*3 9.1 C 0 km/h
871 06-11-2009 06:12:04 9.1 C 6.83 g/m*3 9.1 C 0 km/h
872 06-11-2009 06:24:04 9.1 C 6.83 g/m*3 9.1 C 0 km/h
873 06-11-2009 06:36:04 9.1 C 6.83 g/m*3 9.1 C 0 km/h
874 06-11-2009 06:48:04 9 C 6.79 g/m*3 9 C 0 km/h
875 06-11-2009 07:00:04 9 C 6.7 g/m*3 9 C 0 km/h
Sensor: Nr:Datum:Temp:Abs-Feuchte:Windchill:Wind:
Aussen-T/F 876 06-11-2009 07:12:02 9.1 C 6.74 g/m*3 9.1 C 0 km/h
877 06-11-2009 07:24:02 9.3 C 6.74 g/m*3 9.3 C 0 km/h
878 06-11-2009 07:36:02 9 C 6.61 g/m*3 9 C 0 km/h
879 06-11-2009 07:48:02 9 C 6.61 g/m*3 9 C 0 km/h
880 06-11-2009 08:00:02 9 C 6.7 g/m*3 9 C 0 km/h
881 06-11-2009 08:12:02 9.1 C 6.74 g/m*3 9.1 C 0 km/h
882 06-11-2009 08:24:02 9 C 6.79 g/m*3 9 C 0 km/h
883 06-11-2009 08:36:02 8.9 C 6.92 g/m*3 8.9 C 0 km/h
884 06-11-2009 08:48:02 9 C 6.96 g/m*3 9 C 0 km/h
885 06-11-2009 09:00:02 9.2 C 7.05 g/m*3 9.2 C 0 km/h
886 06-11-2009 09:12:02 9.6 C 7.05 g/m*3 9.6 C 0 km/h
887 06-11-2009 09:24:02 9.8 C 6.96 g/m*3 9.8 C 0 km/h
888 06-11-2009 09:36:01 10 C 6.77 g/m*3 10 C 0 km/h
889 06-11-2009 09:48:02 10.1 C 6.81 g/m*3 10.1 C 0 km/h
890 06-11-2009 10:00:02 10.1 C 6.71 g/m*3 10.1 C 0 km/h
891 06-11-2009 10:12:01 10.2 C 6.57 g/m*3 10.2 C 0 km/h
892 06-11-2009 10:24:02 10.4 C 6.46 g/m*3 10.4 C 0 km/h
893 06-11-2009 10:36:01 10.4 C 6.36 g/m*3 10.4 C 0 km/h
894 06-11-2009 10:48:02 10.5 C 6.11 g/m*3 10.5 C 0 km/h
895 06-11-2009 11:00:02 10.9 C 5.97 g/m*3 10.9 C 0 km/h
896 06-11-2009 11:12:02 11 C 6.21 g/m*3 11 C 0 km/h
897 06-11-2009 11:24:02 10.8 C 6.23 g/m*3 10.8 C 0 km/h
898 06-11-2009 11:36:03 10.8 C 6.23 g/m*3 10.8 C 0 km/h
899 06-11-2009 11:48:02 10.8 C 6.23 g/m*3 10.8 C 0 km/h
900 06-11-2009 12:00:02 11 C 6.11 g/m*3 11 C 0 km/h
Sensor: Nr:Datum:Temp:Abs-Feuchte:Windchill:Wind:
Aussen-T/F 901 06-11-2009 12:12:01 11 C 5.91 g/m*3 11 C 0 km/h
902 06-11-2009 12:24:02 10.7 C 5.8 g/m*3 10.7 C 0 km/h
903 06-11-2009 12:36:02 10.7 C 5.89 g/m*3 10.7 C 0 km/h
904 06-11-2009 12:48:02 10.5 C 5.82 g/m*3 10.5 C 0 km/h
905 06-11-2009 13:00:02 10.6 C 5.86 g/m*3 10.6 C 0 km/h
906 06-11-2009 13:12:02 10.7 C 5.8 g/m*3 10.7 C 0 km/h
907 06-11-2009 13:24:02 10.8 C 5.54 g/m*3 10.8 C 0 km/h
908 06-11-2009 13:36:02 10.7 C 5.5 g/m*3 10.7 C 0 km/h
909 06-11-2009 13:48:01 10.5 C 5.72 g/m*3 10.5 C 0 km/h
910 06-11-2009 14:00:01 10.4 C 5.78 g/m*3 10.4 C 0 km/h
911 06-11-2009 14:12:01 10.4 C 5.88 g/m*3 10.4 C 0 km/h
912 06-11-2009 14:24:01 10.3 C 5.84 g/m*3 10.3 C 0 km/h
913 06-11-2009 14:36:01 10.4 C 5.88 g/m*3 10.4 C 0 km/h
914 06-11-2009 14:48:01 10.5 C 5.82 g/m*3 10.5 C 0 km/h
915 06-11-2009 15:00:01 10.6 C 5.66 g/m*3 10.6 C 0 km/h
916 06-11-2009 15:12:01 10.6 C 5.56 g/m*3 10.6 C 0 km/h
917 06-11-2009 15:24:01 10.5 C 5.53 g/m*3 10.5 C 0 km/h
918 06-11-2009 15:36:01 10.5 C 5.63 g/m*3 10.5 C 0 km/h
919 06-11-2009 15:48:01 10.3 C 5.65 g/m*3 10.3 C 0 km/h
920 06-11-2009 16:00:01 10.3 C 5.75 g/m*3 10.3 C 0 km/h
921 06-11-2009 16:12:01 10.2 C 5.71 g/m*3 10.2 C 0 km/h
922 06-11-2009 16:24:02 10.1 C 5.67 g/m*3 10.1 C 0 km/h
923 06-11-2009 16:36:01 10 C 5.64 g/m*3 10 C 0 km/h
924 06-11-2009 16:48:02 9.9 C 5.7 g/m*3 9.9 C 0 km/h
925 06-11-2009 17:00:02 9.9 C 5.7 g/m*3 9.9 C 0 km/h
Sensor: Nr:Datum:Temp:Abs-Feuchte:Windchill:Wind:
Aussen-T/F 926 06-11-2009 17:12:02 9.8 C 5.85 g/m*3 9.8 C 0 km/h
927 06-11-2009 17:24:03 9.6 C 5.77 g/m*3 9.6 C 0 km/h
928 06-11-2009 17:36:02 9.5 C 5.92 g/m*3 9.5 C 0 km/h
929 06-11-2009 17:48:02 9.4 C 5.97 g/m*3 9.4 C 0 km/h
930 06-11-2009 18:00:02 9.3 C 6.02 g/m*3 9.3 C 0 km/h
931 06-11-2009 18:12:02 9.3 C 6.02 g/m*3 9.3 C 0 km/h
932 06-11-2009 18:24:02 9.3 C 6.02 g/m*3 9.3 C 0 km/h
933 06-11-2009 18:36:02 9.3 C 6.11 g/m*3 9.3 C 0 km/h
934 06-11-2009 18:48:02 9.2 C 6.07 g/m*3 9.2 C 0 km/h
935 06-11-2009 19:00:02 9.2 C 6.07 g/m*3 9.2 C 0 km/h
936 06-11-2009 19:12:01 9.2 C 6.16 g/m*3 9.2 C 0 km/h
937 06-11-2009 19:24:02 9.2 C 6.16 g/m*3 9.2 C 0 km/h
938 06-11-2009 19:36:02 9.2 C 6.16 g/m*3 9.2 C 0 km/h
939 06-11-2009 19:48:02 9.2 C 6.16 g/m*3 9.2 C 0 km/h
940 06-11-2009 20:00:02 9.2 C 6.25 g/m*3 9.2 C 0 km/h
941 06-11-2009 20:12:02 9.2 C 6.25 g/m*3 9.2 C 0 km/h
942 06-11-2009 20:24:02 9.2 C 6.16 g/m*3 9.2 C 0 km/h
943 06-11-2009 20:36:03 9 C 6.08 g/m*3 9 C 0 km/h
944 06-11-2009 20:48:02 8.8 C 6.18 g/m*3 8.8 C 0 km/h
945 06-11-2009 21:00:02 8.7 C 6.14 g/m*3 8.7 C 0 km/h
946 06-11-2009 21:12:02 8.8 C 6.18 g/m*3 8.8 C 0 km/h
947 06-11-2009 21:24:02 8.7 C 6.14 g/m*3 8.7 C 0 km/h
948 06-11-2009 21:36:01 8.7 C 6.05 g/m*3 8.7 C 0 km/h
949 06-11-2009 21:48:02 8.7 C 6.05 g/m*3 8.7 C 0 km/h
950 06-11-2009 22:00:02 8.6 C 6.02 g/m*3 8.6 C 0 km/h
Sensor: Nr:Datum:Temp:Abs-Feuchte:Windchill:Wind:
Aussen-T/F 951 06-11-2009 22:12:01 8.5 C 6.06 g/m*3 8.5 C 0 km/h
952 06-11-2009 22:24:02 8.4 C 6.02 g/m*3 8.4 C 0 km/h
953 06-11-2009 22:36:01 8.2 C 5.95 g/m*3 8.2 C 0 km/h
954 06-11-2009 22:48:03 8.1 C 5.91 g/m*3 8.1 C 0 km/h
955 06-11-2009 23:00:03 7.9 C 6 g/m*3 7.9 C 0 km/h
956 06-11-2009 23:13:03 7.6 C 5.88 g/m*3 7.6 C 0 km/h
957 06-11-2009 23:25:03 7.4 C 5.88 g/m*3 7.4 C 0 km/h
958 06-11-2009 23:37:03 7.5 C 5.92 g/m*3 7.5 C 0 km/h
959 06-11-2009 23:49:03 7.3 C 5.85 g/m*3 7.3 C 0 km/h
960 07-11-2009 00:01:03 7 C 5.81 g/m*3 7 C 0 km/h
961 07-11-2009 00:13:03 6.9 C 5.93 g/m*3 6.9 C 0 km/h
962 07-11-2009 00:25:03 7.1 C 5.93 g/m*3 7.1 C 0 km/h
963 07-11-2009 00:37:03 7.3 C 5.93 g/m*3 7.3 C 0 km/h
964 07-11-2009 00:49:03 7.3 C 5.85 g/m*3 7.3 C 0 km/h
965 07-11-2009 01:01:03 7.3 C 5.85 g/m*3 7.3 C 0 km/h
966 07-11-2009 01:13:04 7.3 C 5.85 g/m*3 7.3 C 0 km/h
967 07-11-2009 01:25:04 7.4 C 5.81 g/m*3 7.4 C 0 km/h
968 07-11-2009 01:37:04 7.7 C 5.84 g/m*3 7.7 C 0 km/h
969 07-11-2009 01:49:04 7.6 C 5.72 g/m*3 7.6 C 0 km/h
970 07-11-2009 02:01:04 7.7 C 5.68 g/m*3 7.7 C 0 km/h
971 07-11-2009 02:13:04 7.7 C 5.68 g/m*3 7.7 C 0 km/h
972 07-11-2009 02:25:04 7.7 C 5.68 g/m*3 7.7 C 0 km/h
973 07-11-2009 02:37:04 7.8 C 5.63 g/m*3 7.8 C 0 km/h
974 07-11-2009 02:49:04 7.8 C 5.63 g/m*3 7.8 C 0 km/h
975 07-11-2009 03:01:04 7.8 C 5.63 g/m*3 7.8 C 0 km/h
Sensor: Nr:Datum:Temp:Abs-Feuchte:Windchill:Wind:
Aussen-T/F 976 07-11-2009 03:13:04 7.8 C 5.63 g/m*3 7.8 C 0 km/h
977 07-11-2009 03:25:04 7.8 C 5.55 g/m*3 7.8 C 0 km/h
978 07-11-2009 03:37:04 7.8 C 5.47 g/m*3 7.8 C 0 km/h
979 07-11-2009 03:49:04 7.8 C 5.55 g/m*3 7.8 C 0 km/h
980 07-11-2009 04:01:04 7.8 C 5.55 g/m*3 7.8 C 0 km/h
981 07-11-2009 04:13:04 7.8 C 5.47 g/m*3 7.8 C 0 km/h
982 07-11-2009 04:25:04 7.8 C 5.47 g/m*3 7.8 C 0 km/h
983 07-11-2009 04:37:04 7.8 C 5.47 g/m*3 7.8 C 0 km/h
984 07-11-2009 04:49:04 7.7 C 5.43 g/m*3 7.7 C 0 km/h
985 07-11-2009 05:01:04 7.7 C 5.43 g/m*3 7.7 C 0 km/h
986 07-11-2009 05:13:05 7.8 C 5.47 g/m*3 7.8 C 0 km/h
987 07-11-2009 05:25:05 7.7 C 5.43 g/m*3 7.7 C 0 km/h
988 07-11-2009 05:37:05 7.7 C 5.35 g/m*3 7.7 C 0 km/h
989 07-11-2009 05:49:05 7.8 C 5.39 g/m*3 7.8 C 0 km/h
990 07-11-2009 06:01:05 7.7 C 5.35 g/m*3 7.7 C 0 km/h
991 07-11-2009 06:13:05 7.8 C 5.39 g/m*3 7.8 C 0 km/h
992 07-11-2009 06:25:05 7.9 C 5.34 g/m*3 7.9 C 0 km/h
993 07-11-2009 06:37:05 7.9 C 5.26 g/m*3 7.9 C 0 km/h
994 07-11-2009 06:49:05 7.9 C 5.26 g/m*3 7.9 C 0 km/h
995 07-11-2009 07:01:05 7.1 C 5.54 g/m*3 7.1 C 0 km/h
996 07-11-2009 07:13:05 6.6 C 5.81 g/m*3 6.6 C 0 km/h
997 07-11-2009 07:25:05 6.4 C 5.89 g/m*3 6.4 C 0 km/h
998 07-11-2009 07:37:05 6.3 C 6 g/m*3 6.3 C 0 km/h
999 07-11-2009 07:49:05 6.3 C 6.07 g/m*3 6.3 C 0 km/h
1000 07-11-2009 08:01:03 6.3 C 6.07 g/m*3 6.3 C 0 km/h
Sensor: Nr:Datum:Temp:Abs-Feuchte:Windchill:Wind:
Aussen-T/F 1001 07-11-2009 08:13:03 6.8 C 6.35 g/m*3 6.8 C 0 km/h
1002 07-11-2009 08:25:03 6.8 C 6.35 g/m*3 6.8 C 0 km/h
1003 07-11-2009 08:37:03 6.9 C 6.24 g/m*3 6.9 C 0 km/h
1004 07-11-2009 08:49:02 6.9 C 6.24 g/m*3 6.9 C 0 km/h
1005 07-11-2009 09:01:01 7.1 C 6.08 g/m*3 7.1 C 0 km/h
1006 07-11-2009 09:13:01 7.5 C 6 g/m*3 7.5 C 0 km/h
1007 07-11-2009 09:25:02 7.8 C 5.88 g/m*3 7.8 C 0 km/h
1008 07-11-2009 09:37:01 8 C 5.7 g/m*3 8 C 0 km/h
1009 07-11-2009 09:49:02 8 C 5.79 g/m*3 8 C 0 km/h
1010 07-11-2009 10:01:01 7.8 C 5.71 g/m*3 7.8 C 0 km/h
1011 07-11-2009 10:13:01 7.5 C 5.76 g/m*3 7.5 C 0 km/h
1012 07-11-2009 10:25:01 7.3 C 5.93 g/m*3 7.3 C 0 km/h
1013 07-11-2009 10:37:01 7.3 C 5.93 g/m*3 7.3 C 0 km/h
1014 07-11-2009 10:49:02 7.5 C 5.92 g/m*3 7.5 C 0 km/h
1015 07-11-2009 11:01:01 7.8 C 5.96 g/m*3 7.8 C 0 km/h
1016 07-11-2009 11:13:01 7.8 C 5.96 g/m*3 7.8 C 0 km/h
1017 07-11-2009 11:25:02 7.9 C 5.91 g/m*3 7.9 C 0 km/h
1018 07-11-2009 11:37:02 7.9 C 5.91 g/m*3 7.9 C 0 km/h
1019 07-11-2009 11:49:01 8.1 C 5.91 g/m*3 8.1 C 0 km/h
1020 07-11-2009 12:01:02 8.3 C 5.82 g/m*3 8.3 C 0 km/h
1021 07-11-2009 12:13:02 8.3 C 5.9 g/m*3 8.3 C 0 km/h
1022 07-11-2009 12:25:01 8.3 C 5.9 g/m*3 8.3 C 0 km/h
1023 07-11-2009 12:37:02 8.3 C 5.98 g/m*3 8.3 C 0 km/h
1024 07-11-2009 12:49:02 8.4 C 6.02 g/m*3 8.4 C 0 km/h
1025 07-11-2009 13:01:02 8.5 C 5.98 g/m*3 8.5 C 0 km/h
Sensor: Nr:Datum:Temp:Abs-Feuchte:Windchill:Wind:
Aussen-T/F 1026 07-11-2009 13:13:02 8.5 C 5.98 g/m*3 8.5 C 0 km/h
1027 07-11-2009 13:25:01 8.3 C 6.07 g/m*3 8.3 C 0 km/h
1028 07-11-2009 13:37:02 8 C 6.2 g/m*3 8 C 0 km/h
1029 07-11-2009 13:49:02 8.5 C 6.4 g/m*3 8.5 C 0 km/h
1030 07-11-2009 14:01:02 9.2 C 6.52 g/m*3 9.2 C 0 km/h
1031 07-11-2009 14:13:02 9.7 C 6.36 g/m*3 9.7 C 0 km/h
1032 07-11-2009 14:25:02 10 C 6.2 g/m*3 10 C 0 km/h
1033 07-11-2009 14:37:02 10.5 C 6.21 g/m*3 10.5 C 0 km/h
1034 07-11-2009 14:49:02 10.6 C 5.95 g/m*3 10.6 C 0 km/h
1035 07-11-2009 15:01:02 10.8 C 6.03 g/m*3 10.8 C 0 km/h
1036 07-11-2009 15:13:03 11.2 C 5.98 g/m*3 11.2 C 0 km/h
1037 07-11-2009 15:25:02 10.8 C 5.93 g/m*3 10.8 C 0 km/h
1038 07-11-2009 15:37:02 10.7 C 5.99 g/m*3 10.7 C 0 km/h
1039 07-11-2009 15:49:02 10.3 C 5.94 g/m*3 10.3 C 0 km/h
1040 07-11-2009 16:01:02 10.1 C 5.86 g/m*3 10.1 C 0 km/h
1041 07-11-2009 16:13:02 9.9 C 5.98 g/m*3 9.9 C 0 km/h
1042 07-11-2009 16:25:02 9.9 C 5.98 g/m*3 9.9 C 0 km/h
1043 07-11-2009 16:37:02 9.8 C 5.94 g/m*3 9.8 C 0 km/h
1044 07-11-2009 16:49:02 9.4 C 5.88 g/m*3 9.4 C 0 km/h
1045 07-11-2009 17:01:02 9 C 5.82 g/m*3 9 C 0 km/h
1046 07-11-2009 17:13:02 8.5 C 5.81 g/m*3 8.5 C 0 km/h
1047 07-11-2009 17:25:03 8.1 C 5.74 g/m*3 8.1 C 0 km/h
1048 07-11-2009 17:37:02 7.9 C 5.91 g/m*3 7.9 C 0 km/h
1049 07-11-2009 17:49:03 8 C 6.04 g/m*3 8 C 0 km/h
1050 07-11-2009 18:01:02 8.2 C 6.11 g/m*3 8.2 C 0 km/h
Sensor: Nr:Datum:Temp:Abs-Feuchte:Windchill:Wind:
Aussen-T/F 1051 07-11-2009 18:13:02 8.5 C 6.15 g/m*3 8.5 C 0 km/h
1052 07-11-2009 18:25:02 8.7 C 6.14 g/m*3 8.7 C 0 km/h
1053 07-11-2009 18:37:02 8.7 C 6.14 g/m*3 8.7 C 0 km/h
1054 07-11-2009 18:49:02 8.7 C 6.14 g/m*3 8.7 C 0 km/h
1055 07-11-2009 19:01:02 8.6 C 6.1 g/m*3 8.6 C 0 km/h
1056 07-11-2009 19:13:02 8.6 C 6.19 g/m*3 8.6 C 0 km/h
1057 07-11-2009 19:25:02 8.6 C 6.19 g/m*3 8.6 C 0 km/h
1058 07-11-2009 19:37:02 8.5 C 6.15 g/m*3 8.5 C 0 km/h
1059 07-11-2009 19:49:02 8.5 C 6.15 g/m*3 8.5 C 0 km/h
1060 07-11-2009 20:01:01 8.5 C 6.15 g/m*3 8.5 C 0 km/h
1061 07-11-2009 20:13:01 8.4 C 6.11 g/m*3 8.4 C 0 km/h
1062 07-11-2009 20:25:02 8.3 C 6.07 g/m*3 8.3 C 0 km/h
1063 07-11-2009 20:37:02 8.3 C 6.15 g/m*3 8.3 C 0 km/h
1064 07-11-2009 20:49:01 8.2 C 6.11 g/m*3 8.2 C 0 km/h
1065 07-11-2009 21:01:01 8.3 C 6.24 g/m*3 8.3 C 0 km/h
1066 07-11-2009 21:13:01 8.3 C 6.24 g/m*3 8.3 C 0 km/h
1067 07-11-2009 21:25:01 8.2 C 6.2 g/m*3 8.2 C 0 km/h
1068 07-11-2009 21:37:02 8.1 C 6.24 g/m*3 8.1 C 0 km/h
1069 07-11-2009 21:49:02 8 C 6.28 g/m*3 8 C 0 km/h
1070 07-11-2009 22:01:02 8 C 6.28 g/m*3 8 C 0 km/h
1071 07-11-2009 22:13:02 7.9 C 6.32 g/m*3 7.9 C 0 km/h
1072 07-11-2009 22:25:02 7.8 C 6.37 g/m*3 7.8 C 0 km/h
1073 07-11-2009 22:37:01 7.9 C 6.41 g/m*3 7.9 C 0 km/h
1074 07-11-2009 22:49:02 7.9 C 6.41 g/m*3 7.9 C 0 km/h
1075 07-11-2009 23:01:01 7.9 C 6.41 g/m*3 7.9 C 0 km/h
Sensor: Nr:Datum:Temp:Abs-Feuchte:Windchill:Wind:
Aussen-T/F 1076 07-11-2009 23:13:01 7.9 C 6.41 g/m*3 7.9 C 0 km/h
1077 07-11-2009 23:25:02 7.8 C 6.37 g/m*3 7.8 C 0 km/h
1078 07-11-2009 23:37:02 7.9 C 6.49 g/m*3 7.9 C 0 km/h
1079 07-11-2009 23:49:02 7.8 C 6.45 g/m*3 7.8 C 0 km/h
1080 08-11-2009 00:02:02 7.6 C 6.44 g/m*3 7.6 C 0 km/h
1081 08-11-2009 00:14:02 7.3 C 6.48 g/m*3 7.3 C 0 km/h
1082 08-11-2009 00:26:02 7.1 C 6.47 g/m*3 7.1 C 0 km/h
1083 08-11-2009 00:38:02 7.1 C 6.55 g/m*3 7.1 C 0 km/h
1084 08-11-2009 00:50:02 7.1 C 6.55 g/m*3 7.1 C 0 km/h
1085 08-11-2009 01:02:03 7.2 C 6.67 g/m*3 7.2 C 0 km/h
1086 08-11-2009 01:14:03 7.2 C 6.67 g/m*3 7.2 C 0 km/h
1087 08-11-2009 01:26:03 7.2 C 6.67 g/m*3 7.2 C 0 km/h
1088 08-11-2009 01:38:03 7.3 C 6.72 g/m*3 7.3 C 0 km/h
1089 08-11-2009 01:50:03 7.3 C 6.64 g/m*3 7.3 C 0 km/h
1090 08-11-2009 02:02:03 7.3 C 6.64 g/m*3 7.3 C 0 km/h
1091 08-11-2009 02:14:03 7.3 C 6.64 g/m*3 7.3 C 0 km/h
1092 08-11-2009 02:26:03 7.4 C 6.68 g/m*3 7.4 C 0 km/h
1093 08-11-2009 02:38:03 7.3 C 6.56 g/m*3 7.3 C 0 km/h
1094 08-11-2009 02:50:03 7.2 C 6.52 g/m*3 7.2 C 0 km/h
1095 08-11-2009 03:02:03 7.1 C 6.55 g/m*3 7.1 C 0 km/h
1096 08-11-2009 03:14:03 7 C 6.51 g/m*3 7 C 0 km/h
1097 08-11-2009 03:26:03 7 C 6.59 g/m*3 7 C 0 km/h
1098 08-11-2009 03:38:03 7 C 6.59 g/m*3 7 C 0 km/h
1099 08-11-2009 03:50:03 7 C 6.59 g/m*3 7 C 0 km/h
1100 08-11-2009 04:02:03 7.1 C 6.71 g/m*3 7.1 C 0 km/h
Sensor: Nr:Datum:Temp:Abs-Feuchte:Windchill:Wind:
Aussen-T/F 1101 08-11-2009 04:14:03 7 C 6.66 g/m*3 7 C 0 km/h
1102 08-11-2009 04:26:03 7 C 6.66 g/m*3 7 C 0 km/h
1103 08-11-2009 04:38:03 7 C 6.74 g/m*3 7 C 0 km/h
1104 08-11-2009 04:50:03 7 C 6.74 g/m*3 7 C 0 km/h
1105 08-11-2009 05:02:04 7.1 C 6.79 g/m*3 7.1 C 0 km/h
1106 08-11-2009 05:14:04 6.5 C 6.52 g/m*3 6.5 C 0 km/h
1107 08-11-2009 05:26:04 6.2 C 6.4 g/m*3 6.2 C 0 km/h
1108 08-11-2009 05:38:04 5.8 C 6.3 g/m*3 5.8 C 0 km/h
1109 08-11-2009 05:50:04 5.4 C 6.14 g/m*3 5.4 C 0 km/h
1110 08-11-2009 06:02:04 5.1 C 6.09 g/m*3 5.1 C 0 km/h
1111 08-11-2009 06:14:04 4.9 C 6.01 g/m*3 4.9 C 0 km/h
1112 08-11-2009 06:26:04 4.8 C 6.04 g/m*3 4.8 C 0 km/h
1113 08-11-2009 06:38:04 5 C 6.12 g/m*3 5 C 0 km/h
1114 08-11-2009 06:50:04 5.1 C 6.16 g/m*3 5.1 C 0 km/h
1115 08-11-2009 07:02:04 5.1 C 6.22 g/m*3 5.1 C 0 km/h
1116 08-11-2009 07:14:04 4.9 C 6.14 g/m*3 4.9 C 0 km/h
1117 08-11-2009 07:26:04 4.6 C 6.02 g/m*3 4.6 C 0 km/h
1118 08-11-2009 07:38:04 4.4 C 5.94 g/m*3 4.4 C 0 km/h
1119 08-11-2009 07:50:04 4.3 C 5.9 g/m*3 4.3 C 0 km/h
1120 08-11-2009 08:02:04 4.1 C 5.82 g/m*3 4.1 C 0 km/h
1121 08-11-2009 08:14:04 4 C 5.79 g/m*3 4 C 0 km/h
1122 08-11-2009 08:26:04 3.8 C 5.77 g/m*3 3.8 C 0 km/h
1123 08-11-2009 08:38:04 3.8 C 5.77 g/m*3 3.8 C 0 km/h
1124 08-11-2009 08:50:04 3.7 C 5.73 g/m*3 3.7 C 0 km/h
1125 08-11-2009 09:02:05 3.7 C 5.8 g/m*3 3.7 C 0 km/h
Sensor: Nr:Datum:Temp:Abs-Feuchte:Windchill:Wind:
Aussen-T/F 1126 08-11-2009 09:14:05 3.6 C 5.76 g/m*3 3.6 C 0 km/h
1127 08-11-2009 09:26:05 3.7 C 5.8 g/m*3 3.7 C 0 km/h
1128 08-11-2009 09:38:05 4 C 5.91 g/m*3 4 C 0 km/h
1129 08-11-2009 09:50:05 4.4 C 6.14 g/m*3 4.4 C 0 km/h
1130 08-11-2009 10:02:01 4.5 C 6.11 g/m*3 4.5 C 0 km/h
1131 08-11-2009 10:14:01 4.5 C 6.11 g/m*3 4.5 C 0 km/h
1132 08-11-2009 10:26:02 4.8 C 6.24 g/m*3 4.8 C 0 km/h
1133 08-11-2009 10:38:01 5.2 C 6.33 g/m*3 5.2 C 0 km/h
1134 08-11-2009 10:50:02 5.6 C 6.5 g/m*3 5.6 C 0 km/h
1135 08-11-2009 11:02:01 6.3 C 6.66 g/m*3 6.3 C 0 km/h
1136 08-11-2009 11:14:01 6.8 C 6.65 g/m*3 6.8 C 0 km/h
1137 08-11-2009 11:26:02 7.1 C 6.24 g/m*3 7.1 C 0 km/h
1138 08-11-2009 11:38:01 7.4 C 6.28 g/m*3 7.4 C 0 km/h
1139 08-11-2009 11:50:02 7.6 C 6.12 g/m*3 7.6 C 0 km/h
1140 08-11-2009 12:02:03 7.6 C 5.88 g/m*3 7.6 C 0 km/h
1141 08-11-2009 12:14:03 7.8 C 5.79 g/m*3 7.8 C 0 km/h
1142 08-11-2009 12:26:02 8.2 C 5.78 g/m*3 8.2 C 0 km/h
1143 08-11-2009 12:38:02 8.2 C 5.69 g/m*3 8.2 C 0 km/h
1144 08-11-2009 12:50:01 8.2 C 5.69 g/m*3 8.2 C 0 km/h
1145 08-11-2009 13:02:02 8.2 C 5.78 g/m*3 8.2 C 0 km/h
1146 08-11-2009 13:14:02 8.3 C 5.98 g/m*3 8.3 C 0 km/h
1147 08-11-2009 13:26:01 8.4 C 5.94 g/m*3 8.4 C 0 km/h
1148 08-11-2009 13:38:01 8 C 5.79 g/m*3 8 C 0 km/h
1149 08-11-2009 13:50:02 7.9 C 5.91 g/m*3 7.9 C 0 km/h
1150 08-11-2009 14:02:02 8.2 C 6.03 g/m*3 8.2 C 0 km/h
Sensor: Nr:Datum:Temp:Abs-Feuchte:Windchill:Wind:
Aussen-T/F 1151 08-11-2009 14:14:03 8.4 C 6.02 g/m*3 8.4 C 0 km/h
1152 08-11-2009 14:26:01 8.4 C 6.02 g/m*3 8.4 C 0 km/h
1153 08-11-2009 14:38:01 8.3 C 5.98 g/m*3 8.3 C 0 km/h
1154 08-11-2009 14:50:01 8.3 C 5.98 g/m*3 8.3 C 0 km/h
1155 08-11-2009 15:02:01 8.5 C 6.06 g/m*3 8.5 C 0 km/h
1156 08-11-2009 15:14:01 8.9 C 6.22 g/m*3 8.9 C 0 km/h
1157 08-11-2009 15:26:02 9 C 6.08 g/m*3 9 C 0 km/h
1158 08-11-2009 15:38:01 8.9 C 6.04 g/m*3 8.9 C 0 km/h
1159 08-11-2009 15:50:02 8.9 C 6.22 g/m*3 8.9 C 0 km/h
1160 08-11-2009 16:02:02 8.7 C 6.14 g/m*3 8.7 C 0 km/h
1161 08-11-2009 16:14:02 8.6 C 6.1 g/m*3 8.6 C 0 km/h
1162 08-11-2009 16:26:03 8.5 C 6.15 g/m*3 8.5 C 0 km/h
1163 08-11-2009 16:38:02 8.4 C 6.19 g/m*3 8.4 C 0 km/h
1164 08-11-2009 16:50:03 8.2 C 6.2 g/m*3 8.2 C 0 km/h
1165 08-11-2009 17:02:02 8.1 C 6.24 g/m*3 8.1 C 0 km/h
1166 08-11-2009 17:14:02 8 C 6.2 g/m*3 8 C 0 km/h
1167 08-11-2009 17:26:03 8 C 6.2 g/m*3 8 C 0 km/h
1168 08-11-2009 17:38:02 7.7 C 6.24 g/m*3 7.7 C 0 km/h
1169 08-11-2009 17:50:02 7.5 C 6.24 g/m*3 7.5 C 0 km/h
1170 08-11-2009 18:02:02 7.4 C 6.28 g/m*3 7.4 C 0 km/h
1171 08-11-2009 18:14:02 7.4 C 6.36 g/m*3 7.4 C 0 km/h
1172 08-11-2009 18:26:02 7.2 C 6.44 g/m*3 7.2 C 0 km/h
1173 08-11-2009 18:38:03 7.1 C 6.47 g/m*3 7.1 C 0 km/h
1174 08-11-2009 18:50:02 7.2 C 6.59 g/m*3 7.2 C 0 km/h
1175 08-11-2009 19:02:01 7.3 C 6.64 g/m*3 7.3 C 0 km/h
Sensor: Nr:Datum:Temp:Abs-Feuchte:Windchill:Wind:
Aussen-T/F 1176 08-11-2009 19:14:01 7.4 C 6.68 g/m*3 7.4 C 0 km/h
1177 08-11-2009 19:26:02 7.4 C 6.68 g/m*3 7.4 C 0 km/h
1178 08-11-2009 19:38:02 7.4 C 6.68 g/m*3 7.4 C 0 km/h
1179 08-11-2009 19:50:02 7.4 C 6.68 g/m*3 7.4 C 0 km/h
1180 08-11-2009 20:02:03 7.4 C 6.68 g/m*3 7.4 C 0 km/h
1181 08-11-2009 20:14:03 7.5 C 6.72 g/m*3 7.5 C 0 km/h
1182 08-11-2009 20:26:02 7.5 C 6.72 g/m*3 7.5 C 0 km/h
1183 08-11-2009 20:38:02 7.5 C 6.64 g/m*3 7.5 C 0 km/h
1184 08-11-2009 20:50:01 7.5 C 6.64 g/m*3 7.5 C 0 km/h
1185 08-11-2009 21:02:02 7.6 C 6.69 g/m*3 7.6 C 0 km/h
1186 08-11-2009 21:14:02 7.5 C 6.56 g/m*3 7.5 C 0 km/h
1187 08-11-2009 21:26:01 7.4 C 6.52 g/m*3 7.4 C 0 km/h
1188 08-11-2009 21:38:01 7.4 C 6.6 g/m*3 7.4 C 0 km/h
1189 08-11-2009 21:50:01 7.4 C 6.6 g/m*3 7.4 C 0 km/h
1190 08-11-2009 22:03:02 7.6 C 6.69 g/m*3 7.6 C 0 km/h
1191 08-11-2009 22:15:02 7.5 C 6.56 g/m*3 7.5 C 0 km/h
1192 08-11-2009 22:27:02 7.5 C 6.56 g/m*3 7.5 C 0 km/h
1193 08-11-2009 22:39:02 7.6 C 6.61 g/m*3 7.6 C 0 km/h
1194 08-11-2009 22:51:02 7.5 C 6.56 g/m*3 7.5 C 0 km/h
1195 08-11-2009 23:03:02 7.5 C 6.56 g/m*3 7.5 C 0 km/h
1196 08-11-2009 23:15:02 7.5 C 6.48 g/m*3 7.5 C 0 km/h
1197 08-11-2009 23:27:02 7.5 C 6.48 g/m*3 7.5 C 0 km/h
1198 08-11-2009 23:39:02 7.4 C 6.44 g/m*3 7.4 C 0 km/h
1199 08-11-2009 23:51:02 7.3 C 6.4 g/m*3 7.3 C 0 km/h
1200 09-11-2009 00:03:02 7.1 C 6.32 g/m*3 7.1 C 0 km/h
Sensor: Nr:Datum:Temp:Abs-Feuchte:Windchill:Wind:
Aussen-T/F 1201 09-11-2009 00:15:02 7 C 6.35 g/m*3 7 C 0 km/h
1202 09-11-2009 00:27:02 7 C 6.35 g/m*3 7 C 0 km/h
1203 09-11-2009 00:39:02 6.9 C 6.39 g/m*3 6.9 C 0 km/h
1204 09-11-2009 00:51:02 6.7 C 6.31 g/m*3 6.7 C 0 km/h
1205 09-11-2009 01:03:02 6.8 C 6.35 g/m*3 6.8 C 0 km/h
1206 09-11-2009 01:15:02 6.8 C 6.42 g/m*3 6.8 C 0 km/h
1207 09-11-2009 01:27:02 6.8 C 6.35 g/m*3 6.8 C 0 km/h
1208 09-11-2009 01:39:02 6.8 C 6.35 g/m*3 6.8 C 0 km/h
1209 09-11-2009 01:51:02 6.8 C 6.35 g/m*3 6.8 C 0 km/h
1210 09-11-2009 02:03:02 6.8 C 6.27 g/m*3 6.8 C 0 km/h
1211 09-11-2009 02:15:03 6.9 C 6.31 g/m*3 6.9 C 0 km/h
1212 09-11-2009 02:27:03 6.9 C 6.24 g/m*3 6.9 C 0 km/h
1213 09-11-2009 02:39:03 7 C 6.2 g/m*3 7 C 0 km/h
1214 09-11-2009 02:51:03 7 C 6.12 g/m*3 7 C 0 km/h
1215 09-11-2009 03:03:03 7 C 6.12 g/m*3 7 C 0 km/h
1216 09-11-2009 03:15:03 7.1 C 6.08 g/m*3 7.1 C 0 km/h
1217 09-11-2009 03:27:03 7 C 6.04 g/m*3 7 C 0 km/h
1218 09-11-2009 03:39:03 7 C 6.04 g/m*3 7 C 0 km/h
1219 09-11-2009 03:51:03 7 C 6.04 g/m*3 7 C 0 km/h
1220 09-11-2009 04:03:03 7 C 6.04 g/m*3 7 C 0 km/h
1221 09-11-2009 04:15:03 7 C 5.97 g/m*3 7 C 0 km/h
1222 09-11-2009 04:27:03 7.1 C 6.01 g/m*3 7.1 C 0 km/h
1223 09-11-2009 04:39:03 7.1 C 5.93 g/m*3 7.1 C 0 km/h
1224 09-11-2009 04:51:03 7.1 C 5.93 g/m*3 7.1 C 0 km/h
1225 09-11-2009 05:03:03 7.2 C 5.89 g/m*3 7.2 C 0 km/h
Sensor: Nr:Datum:Temp:Abs-Feuchte:Windchill:Wind:
Aussen-T/F 1226 09-11-2009 05:15:03 7.2 C 5.89 g/m*3 7.2 C 0 km/h
1227 09-11-2009 05:27:03 7.2 C 5.89 g/m*3 7.2 C 0 km/h
1228 09-11-2009 05:39:03 7.1 C 5.85 g/m*3 7.1 C 0 km/h
1229 09-11-2009 05:51:03 7.1 C 5.85 g/m*3 7.1 C 0 km/h
1230 09-11-2009 06:03:04 6.9 C 5.93 g/m*3 6.9 C 0 km/h
1231 09-11-2009 06:15:04 7 C 5.89 g/m*3 7 C 0 km/h
1232 09-11-2009 06:27:04 7.1 C 5.77 g/m*3 7.1 C 0 km/h
1233 09-11-2009 06:39:04 7.1 C 5.77 g/m*3 7.1 C 0 km/h
1234 09-11-2009 06:51:04 7 C 5.73 g/m*3 7 C 0 km/h
1235 09-11-2009 07:03:02 7 C 5.73 g/m*3 7 C 0 km/h
1236 09-11-2009 07:15:02 7 C 5.66 g/m*3 7 C 0 km/h
1237 09-11-2009 07:27:02 7 C 5.66 g/m*3 7 C 0 km/h
1238 09-11-2009 07:39:01 6.9 C 5.7 g/m*3 6.9 C 0 km/h
1239 09-11-2009 07:51:02 6.9 C 5.62 g/m*3 6.9 C 0 km/h
1240 09-11-2009 08:03:01 6.9 C 5.62 g/m*3 6.9 C 0 km/h
1241 09-11-2009 08:15:02 6.9 C 5.62 g/m*3 6.9 C 0 km/h
1242 09-11-2009 08:27:02 6.9 C 5.62 g/m*3 6.9 C 0 km/h
1243 09-11-2009 08:39:01 6.9 C 5.62 g/m*3 6.9 C 0 km/h
1244 09-11-2009 08:51:02 6.9 C 5.62 g/m*3 6.9 C 0 km/h
1245 09-11-2009 09:03:02 6.8 C 5.58 g/m*3 6.8 C 0 km/h
1246 09-11-2009 09:15:02 6.8 C 5.66 g/m*3 6.8 C 0 km/h
1247 09-11-2009 09:27:02 6.9 C 5.7 g/m*3 6.9 C 0 km/h
1248 09-11-2009 09:39:02 7 C 5.58 g/m*3 7 C 0 km/h
1249 09-11-2009 09:51:02 7 C 5.58 g/m*3 7 C 0 km/h
1250 09-11-2009 10:03:02 6.9 C 5.62 g/m*3 6.9 C 0 km/h
Sensor: Nr:Datum:Temp:Abs-Feuchte:Windchill:Wind:
Aussen-T/F 1251 09-11-2009 10:15:01 6.9 C 5.7 g/m*3 6.9 C 0 km/h
1252 09-11-2009 10:27:01 6.8 C 5.81 g/m*3 6.8 C 0 km/h
1253 09-11-2009 10:39:01 6.7 C 5.85 g/m*3 6.7 C 0 km/h
1254 09-11-2009 10:51:01 6.6 C 6.04 g/m*3 6.6 C 0 km/h
1255 09-11-2009 11:03:02 6.4 C 6.11 g/m*3 6.4 C 0 km/h
1256 09-11-2009 11:15:02 6.4 C 6.26 g/m*3 6.4 C 0 km/h
1257 09-11-2009 11:27:02 6.5 C 6.37 g/m*3 6.5 C 0 km/h
1258 09-11-2009 11:39:01 6.7 C 6.53 g/m*3 6.7 C 0 km/h
1259 09-11-2009 11:51:01 6.3 C 6.29 g/m*3 6.3 C 0 km/h
1260 09-11-2009 12:03:02 6.3 C 6.37 g/m*3 6.3 C 0 km/h
1261 09-11-2009 12:15:02 6.3 C 6.37 g/m*3 6.3 C 0 km/h
1262 09-11-2009 12:27:02 6.3 C 6.44 g/m*3 6.3 C 0 km/h
1263 09-11-2009 12:39:01 6.2 C 6.4 g/m*3 6.2 C 0 km/h
1264 09-11-2009 12:51:01 6.2 C 6.4 g/m*3 6.2 C 0 km/h
1265 09-11-2009 13:03:01 6.2 C 6.4 g/m*3 6.2 C 0 km/h
1266 09-11-2009 13:15:02 6.2 C 6.4 g/m*3 6.2 C 0 km/h
1267 09-11-2009 13:27:02 6.2 C 6.4 g/m*3 6.2 C 0 km/h
1268 09-11-2009 13:39:01 6.2 C 6.4 g/m*3 6.2 C 0 km/h
1269 09-11-2009 13:51:03 6.2 C 6.4 g/m*3 6.2 C 0 km/h
1270 09-11-2009 14:03:02 6.2 C 6.4 g/m*3 6.2 C 0 km/h
1271 09-11-2009 14:15:02 6.3 C 6.44 g/m*3 6.3 C 0 km/h
1272 09-11-2009 14:27:03 6.2 C 6.4 g/m*3 6.2 C 0 km/h
1273 09-11-2009 14:39:02 6.2 C 6.47 g/m*3 6.2 C 0 km/h
1274 09-11-2009 14:51:02 6.1 C 6.5 g/m*3 6.1 C 0 km/h
1275 09-11-2009 15:03:01 6 C 6.46 g/m*3 6 C 0 km/h
Sensor: Nr:Datum:Temp:Abs-Feuchte:Windchill:Wind:
Aussen-T/F 1276 09-11-2009 15:15:02 5.9 C 6.56 g/m*3 5.9 C 0 km/h
1277 09-11-2009 15:27:02 6 C 6.6 g/m*3 6 C 0 km/h
1278 09-11-2009 15:39:02 5.8 C 6.59 g/m*3 5.8 C 0 km/h
1279 09-11-2009 15:51:01 5.9 C 6.71 g/m*3 5.9 C 0 km/h
1280 09-11-2009 16:03:01 5.8 C 6.66 g/m*3 5.8 C 0 km/h
1281 09-11-2009 16:15:01 5.7 C 6.62 g/m*3 5.7 C 0 km/h
1282 09-11-2009 16:27:01 5.7 C 6.69 g/m*3 5.7 C 0 km/h
1283 09-11-2009 16:39:02 5.7 C 6.69 g/m*3 5.7 C 0 km/h
1284 09-11-2009 16:51:02 5.7 C 6.69 g/m*3 5.7 C 0 km/h
1285 09-11-2009 17:03:02 5.6 C 6.72 g/m*3 5.6 C 0 km/h
1286 09-11-2009 17:15:01 5.5 C 6.67 g/m*3 5.5 C 0 km/h
1287 09-11-2009 17:27:01 5.4 C 6.63 g/m*3 5.4 C 0 km/h
1288 09-11-2009 17:39:02 5.3 C 6.58 g/m*3 5.3 C 0 km/h
1289 09-11-2009 17:51:02 5.2 C 6.54 g/m*3 5.2 C 0 km/h
1290 09-11-2009 18:03:02 5.2 C 6.54 g/m*3 5.2 C 0 km/h
1291 09-11-2009 18:15:02 5.1 C 6.5 g/m*3 5.1 C 0 km/h
1292 09-11-2009 18:27:02 5.1 C 6.5 g/m*3 5.1 C 0 km/h
1293 09-11-2009 18:39:02 5 C 6.46 g/m*3 5 C 0 km/h
1294 09-11-2009 18:51:01 5 C 6.46 g/m*3 5 C 0 km/h
1295 09-11-2009 19:03:01 5 C 6.46 g/m*3 5 C 0 km/h
1296 09-11-2009 19:15:01 5.1 C 6.5 g/m*3 5.1 C 0 km/h
1297 09-11-2009 19:27:01 5.1 C 6.5 g/m*3 5.1 C 0 km/h
1298 09-11-2009 19:39:01 5.2 C 6.54 g/m*3 5.2 C 0 km/h
1299 09-11-2009 19:51:01 5.2 C 6.54 g/m*3 5.2 C 0 km/h
1300 09-11-2009 20:03:01 5.2 C 6.54 g/m*3 5.2 C 0 km/h
Sensor: Nr:Datum:Temp:Abs-Feuchte:Windchill:Wind:
Aussen-T/F 1301 09-11-2009 20:15:02 5.2 C 6.54 g/m*3 5.2 C 0 km/h
1302 09-11-2009 20:27:02 5.2 C 6.54 g/m*3 5.2 C 0 km/h
1303 09-11-2009 20:39:01 5.2 C 6.54 g/m*3 5.2 C 0 km/h
1304 09-11-2009 20:51:01 5.2 C 6.54 g/m*3 5.2 C 0 km/h
1305 09-11-2009 21:03:01 5.1 C 6.5 g/m*3 5.1 C 0 km/h
1306 09-11-2009 21:15:01 5.1 C 6.5 g/m*3 5.1 C 0 km/h
1307 09-11-2009 21:27:01 5.1 C 6.5 g/m*3 5.1 C 0 km/h
1308 09-11-2009 21:39:02 5.1 C 6.5 g/m*3 5.1 C 0 km/h
1309 09-11-2009 21:51:02 5 C 6.46 g/m*3 5 C 0 km/h
1310 09-11-2009 22:03:02 5 C 6.46 g/m*3 5 C 0 km/h
1311 09-11-2009 22:16:40 5 C 6.46 g/m*3 5 C 0 km/h
1312 09-11-2009 22:28:40 5 C 6.46 g/m*3 5 C 0 km/h
1313 09-11-2009 22:40:40 5 C 6.46 g/m*3 5 C 0 km/h
1314 09-11-2009 22:52:40 5 C 6.46 g/m*3 5 C 0 km/h
1315 09-11-2009 23:04:40 5 C 6.46 g/m*3 5 C 0 km/h
1316 09-11-2009 23:16:40 5 C 6.46 g/m*3 5 C 0 km/h
1317 09-11-2009 23:28:40 5 C 6.46 g/m*3 5 C 0 km/h
1318 09-11-2009 23:40:40 4.9 C 6.41 g/m*3 4.9 C 0 km/h
1319 09-11-2009 23:52:41 5 C 6.46 g/m*3 5 C 0 km/h
1320 10-11-2009 00:04:41 5 C 6.46 g/m*3 5 C 0 km/h
1321 10-11-2009 00:16:41 5 C 6.46 g/m*3 5 C 0 km/h
1322 10-11-2009 00:28:41 5 C 6.46 g/m*3 5 C 0 km/h
1323 10-11-2009 00:40:41 5 C 6.46 g/m*3 5 C 0 km/h
1324 10-11-2009 00:52:41 4.9 C 6.41 g/m*3 4.9 C 0 km/h
1325 10-11-2009 01:04:41 4.9 C 6.41 g/m*3 4.9 C 0 km/h
Sensor: Nr:Datum:Temp:Abs-Feuchte:Windchill:Wind:
Aussen-T/F 1326 10-11-2009 01:16:41 5 C 6.46 g/m*3 5 C 0 km/h
1327 10-11-2009 01:28:41 5 C 6.46 g/m*3 5 C 0 km/h
1328 10-11-2009 01:40:41 5 C 6.46 g/m*3 5 C 0 km/h
1329 10-11-2009 01:52:41 5 C 6.46 g/m*3 5 C 0 km/h
1330 10-11-2009 02:04:41 5 C 6.46 g/m*3 5 C 0 km/h
1331 10-11-2009 02:16:41 5 C 6.46 g/m*3 5 C 0 km/h
1332 10-11-2009 02:28:41 4.9 C 6.41 g/m*3 4.9 C 0 km/h
1333 10-11-2009 02:40:41 4.9 C 6.41 g/m*3 4.9 C 0 km/h
1334 10-11-2009 02:52:41 4.9 C 6.41 g/m*3 4.9 C 0 km/h
1335 10-11-2009 03:04:41 4.8 C 6.37 g/m*3 4.8 C 0 km/h
1336 10-11-2009 03:16:41 4.9 C 6.41 g/m*3 4.9 C 0 km/h
1337 10-11-2009 03:28:41 4.9 C 6.41 g/m*3 4.9 C 0 km/h
1338 10-11-2009 03:40:42 5 C 6.46 g/m*3 5 C 0 km/h
1339 10-11-2009 03:52:42 5 C 6.46 g/m*3 5 C 0 km/h
1340 10-11-2009 04:04:42 5 C 6.46 g/m*3 5 C 0 km/h
1341 10-11-2009 04:16:42 5 C 6.46 g/m*3 5 C 0 km/h
1342 10-11-2009 04:28:42 5.1 C 6.5 g/m*3 5.1 C 0 km/h
1343 10-11-2009 04:40:42 5.1 C 6.5 g/m*3 5.1 C 0 km/h
1344 10-11-2009 04:52:42 5.1 C 6.5 g/m*3 5.1 C 0 km/h
1345 10-11-2009 05:04:42 5.1 C 6.5 g/m*3 5.1 C 0 km/h
1346 10-11-2009 05:16:42 5.2 C 6.54 g/m*3 5.2 C 0 km/h
1347 10-11-2009 05:28:42 5.2 C 6.54 g/m*3 5.2 C 0 km/h
1348 10-11-2009 05:40:42 5.2 C 6.54 g/m*3 5.2 C 0 km/h
1349 10-11-2009 05:52:42 5.3 C 6.58 g/m*3 5.3 C 0 km/h
1350 10-11-2009 06:04:42 5.3 C 6.58 g/m*3 5.3 C 0 km/h
Sensor: Nr:Datum:Temp:Abs-Feuchte:Windchill:Wind:
Aussen-T/F 1351 10-11-2009 06:16:42 5.4 C 6.63 g/m*3 5.4 C 0 km/h
1352 10-11-2009 06:28:42 5.4 C 6.63 g/m*3 5.4 C 0 km/h
1353 10-11-2009 06:40:42 5.4 C 6.63 g/m*3 5.4 C 0 km/h
1354 10-11-2009 06:52:02 5.4 C 6.63 g/m*3 5.4 C 0 km/h
1355 10-11-2009 07:04:03 5.4 C 6.63 g/m*3 5.4 C 0 km/h
1356 10-11-2009 07:16:02 5.4 C 6.63 g/m*3 5.4 C 0 km/h
1357 10-11-2009 07:28:02 5.4 C 6.63 g/m*3 5.4 C 0 km/h
1358 10-11-2009 07:40:02 5.4 C 6.63 g/m*3 5.4 C 0 km/h
1359 10-11-2009 07:52:01 5.3 C 6.58 g/m*3 5.3 C 0 km/h
1360 10-11-2009 08:04:02 5.3 C 6.58 g/m*3 5.3 C 0 km/h
1361 10-11-2009 08:16:01 5.3 C 6.58 g/m*3 5.3 C 0 km/h
1362 10-11-2009 08:28:01 5.2 C 6.54 g/m*3 5.2 C 0 km/h
1363 10-11-2009 08:40:02 5.2 C 6.54 g/m*3 5.2 C 0 km/h
1364 10-11-2009 08:52:02 5.3 C 6.58 g/m*3 5.3 C 0 km/h
1365 10-11-2009 09:04:02 5.4 C 6.63 g/m*3 5.4 C 0 km/h
1366 10-11-2009 09:16:01 5.6 C 6.72 g/m*3 5.6 C 0 km/h
1367 10-11-2009 09:28:01 5.7 C 6.76 g/m*3 5.7 C 0 km/h
1368 10-11-2009 09:40:02 5.9 C 6.85 g/m*3 5.9 C 0 km/h
1369 10-11-2009 09:52:02 5.9 C 6.85 g/m*3 5.9 C 0 km/h
1370 10-11-2009 10:04:02 5.8 C 6.81 g/m*3 5.8 C 0 km/h
1371 10-11-2009 10:16:02 5.7 C 6.76 g/m*3 5.7 C 0 km/h
1372 10-11-2009 10:28:02 5.6 C 6.72 g/m*3 5.6 C 0 km/h
1373 10-11-2009 10:40:01 5.8 C 6.81 g/m*3 5.8 C 0 km/h
1374 10-11-2009 10:52:02 5.9 C 6.85 g/m*3 5.9 C 0 km/h
1375 10-11-2009 11:04:01 6 C 6.9 g/m*3 6 C 0 km/h
Sensor: Nr:Datum:Temp:Abs-Feuchte:Windchill:Wind:
Aussen-T/F 1376 10-11-2009 11:16:01 6.3 C 7.03 g/m*3 6.3 C 0 km/h
1377 10-11-2009 11:28:01 6 C 6.9 g/m*3 6 C 0 km/h
1378 10-11-2009 11:40:02 6.2 C 6.99 g/m*3 6.2 C 0 km/h
1379 10-11-2009 11:52:02 6.4 C 7.08 g/m*3 6.4 C 0 km/h
1380 10-11-2009 12:04:01 6.4 C 7.08 g/m*3 6.4 C 0 km/h
1381 10-11-2009 12:16:02 6.3 C 7.03 g/m*3 6.3 C 0 km/h
1382 10-11-2009 12:28:02 6.3 C 7.03 g/m*3 6.3 C 0 km/h
1383 10-11-2009 12:40:02 6.3 C 7.03 g/m*3 6.3 C 0 km/h
1384 10-11-2009 12:52:01 6.3 C 7.03 g/m*3 6.3 C 0 km/h
1385 10-11-2009 13:04:02 6.6 C 7.17 g/m*3 6.6 C 0 km/h
1386 10-11-2009 13:16:01 6.6 C 7.17 g/m*3 6.6 C 0 km/h
1387 10-11-2009 13:28:01 7 C 7.28 g/m*3 7 C 0 km/h
1388 10-11-2009 13:40:02 7.5 C 7.44 g/m*3 7.5 C 0 km/h
1389 10-11-2009 13:52:02 7.5 C 7.2 g/m*3 7.5 C 0 km/h
1390 10-11-2009 14:04:02 7.8 C 7.26 g/m*3 7.8 C 0 km/h
1391 10-11-2009 14:16:01 8 C 7.19 g/m*3 8 C 0 km/h
1392 10-11-2009 14:28:01 7.8 C 6.94 g/m*3 7.8 C 0 km/h
1393 10-11-2009 14:40:02 7.7 C 6.89 g/m*3 7.7 C 0 km/h
1394 10-11-2009 14:52:02 7.6 C 6.93 g/m*3 7.6 C 0 km/h
1395 10-11-2009 15:04:02 7.6 C 7.01 g/m*3 7.6 C 0 km/h
1396 10-11-2009 15:16:01 7.4 C 7 g/m*3 7.4 C 0 km/h
1397 10-11-2009 15:28:01 7.1 C 6.86 g/m*3 7.1 C 0 km/h
1398 10-11-2009 15:40:02 6.9 C 6.93 g/m*3 6.9 C 0 km/h
1399 10-11-2009 15:52:02 6.8 C 6.88 g/m*3 6.8 C 0 km/h
1400 10-11-2009 16:04:02 6.8 C 6.96 g/m*3 6.8 C 0 km/h
Sensor: Nr:Datum:Temp:Abs-Feuchte:Windchill:Wind:
Aussen-T/F 1401 10-11-2009 16:16:01 6.7 C 6.99 g/m*3 6.7 C 0 km/h
1402 10-11-2009 16:28:01 6.7 C 6.99 g/m*3 6.7 C 0 km/h
1403 10-11-2009 16:40:02 6.6 C 6.95 g/m*3 6.6 C 0 km/h
1404 10-11-2009 16:52:02 6.5 C 6.97 g/m*3 6.5 C 0 km/h
1405 10-11-2009 17:04:02 6.5 C 6.97 g/m*3 6.5 C 0 km/h
1406 10-11-2009 17:16:02 6.5 C 6.97 g/m*3 6.5 C 0 km/h
1407 10-11-2009 17:28:02 6.5 C 6.97 g/m*3 6.5 C 0 km/h
1408 10-11-2009 17:40:02 6.5 C 6.97 g/m*3 6.5 C 0 km/h
1409 10-11-2009 17:52:02 6.5 C 6.97 g/m*3 6.5 C 0 km/h
1410 10-11-2009 18:04:01 6.5 C 6.97 g/m*3 6.5 C 0 km/h
1411 10-11-2009 18:16:02 6.5 C 6.97 g/m*3 6.5 C 0 km/h
1412 10-11-2009 18:28:02 6.6 C 6.95 g/m*3 6.6 C 0 km/h
1413 10-11-2009 18:40:01 6.5 C 6.9 g/m*3 6.5 C 0 km/h
1414 10-11-2009 18:52:03 6.6 C 6.87 g/m*3 6.6 C 0 km/h
1415 10-11-2009 19:04:02 6.6 C 6.87 g/m*3 6.6 C 0 km/h
1416 10-11-2009 19:16:02 6.6 C 6.87 g/m*3 6.6 C 0 km/h
1417 10-11-2009 19:28:02 6.7 C 6.91 g/m*3 6.7 C 0 km/h
1418 10-11-2009 19:40:02 6.7 C 6.91 g/m*3 6.7 C 0 km/h
1419 10-11-2009 19:52:02 6.7 C 6.84 g/m*3 6.7 C 0 km/h
1420 10-11-2009 20:04:02 6.7 C 6.84 g/m*3 6.7 C 0 km/h
1421 10-11-2009 20:16:02 6.7 C 6.84 g/m*3 6.7 C 0 km/h
1422 10-11-2009 20:28:02 6.7 C 6.84 g/m*3 6.7 C 0 km/h
1423 10-11-2009 20:40:01 6.7 C 6.84 g/m*3 6.7 C 0 km/h
1424 10-11-2009 20:52:02 6.7 C 6.91 g/m*3 6.7 C 0 km/h
1425 10-11-2009 21:04:02 6.6 C 6.87 g/m*3 6.6 C 0 km/h
Sensor: Nr:Datum:Temp:Abs-Feuchte:Windchill:Wind:
Aussen-T/F 1426 10-11-2009 21:16:02 6.6 C 6.95 g/m*3 6.6 C 0 km/h
1427 10-11-2009 21:28:02 6.6 C 6.95 g/m*3 6.6 C 0 km/h
1428 10-11-2009 21:40:01 6.6 C 6.95 g/m*3 6.6 C 0 km/h
1429 10-11-2009 21:53:02 6.6 C 6.95 g/m*3 6.6 C 0 km/h
1430 10-11-2009 22:05:02 6.6 C 7.02 g/m*3 6.6 C 0 km/h
1431 10-11-2009 22:17:02 6.5 C 6.97 g/m*3 6.5 C 0 km/h
1432 10-11-2009 22:29:02 6.5 C 6.97 g/m*3 6.5 C 0 km/h
1433 10-11-2009 22:41:02 6.5 C 7.05 g/m*3 6.5 C 0 km/h
1434 10-11-2009 22:53:02 6.5 C 7.05 g/m*3 6.5 C 0 km/h
1435 10-11-2009 23:05:02 6.5 C 7.05 g/m*3 6.5 C 0 km/h
1436 10-11-2009 23:17:02 6.5 C 7.05 g/m*3 6.5 C 0 km/h
1437 10-11-2009 23:29:02 6.5 C 7.05 g/m*3 6.5 C 0 km/h
1438 10-11-2009 23:41:02 6.5 C 7.12 g/m*3 6.5 C 0 km/h
1439 10-11-2009 23:53:02 6.5 C 7.12 g/m*3 6.5 C 0 km/h
1440 11-11-2009 00:05:02 6.5 C 7.12 g/m*3 6.5 C 0 km/h
1441 11-11-2009 00:17:02 6.5 C 7.12 g/m*3 6.5 C 0 km/h
1442 11-11-2009 00:29:03 6.5 C 7.12 g/m*3 6.5 C 0 km/h
1443 11-11-2009 00:41:03 6.4 C 7.08 g/m*3 6.4 C 0 km/h
1444 11-11-2009 00:53:03 6.3 C 7.03 g/m*3 6.3 C 0 km/h
1445 11-11-2009 01:05:03 6.3 C 7.03 g/m*3 6.3 C 0 km/h
1446 11-11-2009 01:17:03 6.3 C 7.03 g/m*3 6.3 C 0 km/h
1447 11-11-2009 01:29:03 6.2 C 6.99 g/m*3 6.2 C 0 km/h
1448 11-11-2009 01:41:03 6.2 C 6.99 g/m*3 6.2 C 0 km/h
1449 11-11-2009 01:53:03 6.2 C 6.99 g/m*3 6.2 C 0 km/h
1450 11-11-2009 02:05:03 5.9 C 6.85 g/m*3 5.9 C 0 km/h
Sensor: Nr:Datum:Temp:Abs-Feuchte:Windchill:Wind:
Aussen-T/F 1451 11-11-2009 02:17:03 5.4 C 6.63 g/m*3 5.4 C 0 km/h
1452 11-11-2009 02:29:03 5.2 C 6.54 g/m*3 5.2 C 0 km/h
1453 11-11-2009 02:41:03 5 C 6.46 g/m*3 5 C 0 km/h
1454 11-11-2009 02:53:03 5.1 C 6.5 g/m*3 5.1 C 0 km/h
1455 11-11-2009 03:05:03 5.2 C 6.54 g/m*3 5.2 C 0 km/h
1456 11-11-2009 03:17:03 5.4 C 6.63 g/m*3 5.4 C 0 km/h
1457 11-11-2009 03:29:03 5.4 C 6.63 g/m*3 5.4 C 0 km/h
1458 11-11-2009 03:41:03 5.4 C 6.63 g/m*3 5.4 C 0 km/h
1459 11-11-2009 03:53:03 5.4 C 6.63 g/m*3 5.4 C 0 km/h
1460 11-11-2009 04:05:03 5.4 C 6.63 g/m*3 5.4 C 0 km/h
1461 11-11-2009 04:17:04 5.4 C 6.63 g/m*3 5.4 C 0 km/h
1462 11-11-2009 04:29:04 5.4 C 6.63 g/m*3 5.4 C 0 km/h
1463 11-11-2009 04:41:04 5.4 C 6.63 g/m*3 5.4 C 0 km/h
1464 11-11-2009 04:53:04 5.4 C 6.56 g/m*3 5.4 C 0 km/h
1465 11-11-2009 05:05:04 5.4 C 6.49 g/m*3 5.4 C 0 km/h
1466 11-11-2009 05:17:04 5.5 C 6.39 g/m*3 5.5 C 0 km/h
1467 11-11-2009 05:29:04 5.5 C 6.32 g/m*3 5.5 C 0 km/h
1468 11-11-2009 05:41:04 5.5 C 6.25 g/m*3 5.5 C 0 km/h
1469 11-11-2009 05:53:04 5.6 C 6.15 g/m*3 5.6 C 0 km/h
1470 11-11-2009 06:05:04 5.5 C 6.04 g/m*3 5.5 C 0 km/h
1471 11-11-2009 06:17:04 5.6 C 6.01 g/m*3 5.6 C 0 km/h
1472 11-11-2009 06:29:04 5.6 C 6.01 g/m*3 5.6 C 0 km/h
1473 11-11-2009 06:41:04 5.7 C 6.05 g/m*3 5.7 C 0 km/h
1474 11-11-2009 06:53:04 5.7 C 5.98 g/m*3 5.7 C 0 km/h
1475 11-11-2009 07:05:02 5.7 C 5.98 g/m*3 5.7 C 0 km/h
Sensor: Nr:Datum:Temp:Abs-Feuchte:Windchill:Wind:
Aussen-T/F 1476 11-11-2009 07:17:02 5.7 C 5.91 g/m*3 5.7 C 0 km/h
1477 11-11-2009 07:29:02 5.7 C 5.91 g/m*3 5.7 C 0 km/h
1478 11-11-2009 07:41:02 5.7 C 5.84 g/m*3 5.7 C 0 km/h
1479 11-11-2009 07:53:02 5.7 C 5.84 g/m*3 5.7 C 0 km/h
1480 11-11-2009 08:05:02 5.7 C 5.84 g/m*3 5.7 C 0 km/h
1481 11-11-2009 08:17:02 5.7 C 5.84 g/m*3 5.7 C 0 km/h
1482 11-11-2009 08:29:02 5.7 C 5.84 g/m*3 5.7 C 0 km/h
1483 11-11-2009 08:41:02 5.7 C 5.84 g/m*3 5.7 C 0 km/h
1484 11-11-2009 08:53:02 5.7 C 5.84 g/m*3 5.7 C 0 km/h
1485 11-11-2009 09:05:02 5.8 C 5.87 g/m*3 5.8 C 0 km/h
1486 11-11-2009 09:17:03 5.9 C 5.84 g/m*3 5.9 C 0 km/h
1487 11-11-2009 09:29:03 6 C 5.81 g/m*3 6 C 0 km/h
1488 11-11-2009 09:41:02 6 C 5.88 g/m*3 6 C 0 km/h
1489 11-11-2009 09:53:02 6.1 C 5.92 g/m*3 6.1 C 0 km/h
1490 11-11-2009 10:05:02 6.2 C 6.03 g/m*3 6.2 C 0 km/h
1491 11-11-2009 10:17:03 6.3 C 6.07 g/m*3 6.3 C 0 km/h
1492 11-11-2009 10:29:03 6.5 C 6.22 g/m*3 6.5 C 0 km/h
1493 11-11-2009 10:41:02 6.5 C 6.22 g/m*3 6.5 C 0 km/h
1494 11-11-2009 10:53:03 6.7 C 6.31 g/m*3 6.7 C 0 km/h
1495 11-11-2009 11:05:02 6.6 C 6.27 g/m*3 6.6 C 0 km/h
1496 11-11-2009 11:17:02 6.7 C 6.23 g/m*3 6.7 C 0 km/h
1497 11-11-2009 11:29:02 7.1 C 6.32 g/m*3 7.1 C 0 km/h
1498 11-11-2009 11:41:02 7.4 C 6.28 g/m*3 7.4 C 0 km/h
1499 11-11-2009 11:53:02 7.5 C 6.16 g/m*3 7.5 C 0 km/h
1500 11-11-2009 12:05:02 7.3 C 6 g/m*3 7.3 C 0 km/h
Sensor: Nr:Datum:Temp:Abs-Feuchte:Windchill:Wind:
Aussen-T/F 1501 11-11-2009 12:17:02 7.3 C 6.16 g/m*3 7.3 C 0 km/h
1502 11-11-2009 12:29:03 7.2 C 6.12 g/m*3 7.2 C 0 km/h
1503 11-11-2009 12:41:02 7.3 C 6.16 g/m*3 7.3 C 0 km/h
1504 11-11-2009 12:53:02 7.2 C 6.12 g/m*3 7.2 C 0 km/h
1505 11-11-2009 13:05:01 7.4 C 6.28 g/m*3 7.4 C 0 km/h
1506 11-11-2009 13:17:02 7.3 C 6.24 g/m*3 7.3 C 0 km/h
1507 11-11-2009 13:29:02 7.5 C 6.24 g/m*3 7.5 C 0 km/h
1508 11-11-2009 13:41:01 7.6 C 6.28 g/m*3 7.6 C 0 km/h
1509 11-11-2009 13:53:02 7.6 C 6.2 g/m*3 7.6 C 0 km/h
1510 11-11-2009 14:05:01 7.8 C 6.28 g/m*3 7.8 C 0 km/h
1511 11-11-2009 14:17:01 7.7 C 6.16 g/m*3 7.7 C 0 km/h
1512 11-11-2009 14:29:01 7.7 C 6.16 g/m*3 7.7 C 0 km/h
1513 11-11-2009 14:41:02 7.7 C 6.16 g/m*3 7.7 C 0 km/h
1514 11-11-2009 14:53:02 7.8 C 6.2 g/m*3 7.8 C 0 km/h
1515 11-11-2009 15:05:02 7.7 C 6.16 g/m*3 7.7 C 0 km/h
1516 11-11-2009 15:17:02 7.7 C 6.16 g/m*3 7.7 C 0 km/h
1517 11-11-2009 15:29:02 7.6 C 6.2 g/m*3 7.6 C 0 km/h
1518 11-11-2009 15:41:02 7.6 C 6.2 g/m*3 7.6 C 0 km/h
1519 11-11-2009 15:53:01 7.7 C 6.24 g/m*3 7.7 C 0 km/h
1520 11-11-2009 16:05:02 7.4 C 6.12 g/m*3 7.4 C 0 km/h
1521 11-11-2009 16:17:01 7.1 C 6.08 g/m*3 7.1 C 0 km/h
1522 11-11-2009 16:29:01 6.9 C 6.16 g/m*3 6.9 C 0 km/h
1523 11-11-2009 16:41:02 6.8 C 6.19 g/m*3 6.8 C 0 km/h
1524 11-11-2009 16:53:02 6.7 C 6.15 g/m*3 6.7 C 0 km/h
1525 11-11-2009 17:05:02 6.7 C 6.23 g/m*3 6.7 C 0 km/h
Sensor: Nr:Datum:Temp:Abs-Feuchte:Windchill:Wind:
Aussen-T/F 1526 11-11-2009 17:17:01 6.5 C 6.15 g/m*3 6.5 C 0 km/h
1527 11-11-2009 17:29:01 6.5 C 6.15 g/m*3 6.5 C 0 km/h
1528 11-11-2009 17:41:02 6.3 C 6.07 g/m*3 6.3 C 0 km/h
1529 11-11-2009 17:53:02 6.4 C 6.11 g/m*3 6.4 C 0 km/h
1530 11-11-2009 18:05:02 6.4 C 6.11 g/m*3 6.4 C 0 km/h
1531 11-11-2009 18:17:01 6.6 C 6.19 g/m*3 6.6 C 0 km/h
1532 11-11-2009 18:29:01 6.6 C 6.11 g/m*3 6.6 C 0 km/h
1533 11-11-2009 18:41:02 6.6 C 6.11 g/m*3 6.6 C 0 km/h
1534 11-11-2009 18:53:02 6.6 C 6.11 g/m*3 6.6 C 0 km/h
1535 11-11-2009 19:05:02 6.6 C 6.04 g/m*3 6.6 C 0 km/h
1536 11-11-2009 19:17:02 6.6 C 6.11 g/m*3 6.6 C 0 km/h
1537 11-11-2009 19:29:02 6.6 C 6.11 g/m*3 6.6 C 0 km/h
1538 11-11-2009 19:41:02 6.6 C 6.11 g/m*3 6.6 C 0 km/h
1539 11-11-2009 19:53:02 6.4 C 6.04 g/m*3 6.4 C 0 km/h
1540 11-11-2009 20:05:02 6.4 C 5.96 g/m*3 6.4 C 0 km/h
1541 11-11-2009 20:17:02 6.4 C 5.89 g/m*3 6.4 C 0 km/h
1542 11-11-2009 20:29:02 6.4 C 5.89 g/m*3 6.4 C 0 km/h
1543 11-11-2009 20:41:02 6.4 C 5.89 g/m*3 6.4 C 0 km/h
1544 11-11-2009 20:53:02 6.3 C 5.85 g/m*3 6.3 C 0 km/h
1545 11-11-2009 21:05:02 6.3 C 5.77 g/m*3 6.3 C 0 km/h
1546 11-11-2009 21:17:02 6.3 C 5.77 g/m*3 6.3 C 0 km/h
1547 11-11-2009 21:29:02 6.3 C 5.77 g/m*3 6.3 C 0 km/h
1548 11-11-2009 21:41:02 6.3 C 5.7 g/m*3 6.3 C 0 km/h
1549 11-11-2009 21:53:01 6.2 C 5.66 g/m*3 6.2 C 0 km/h
1550 11-11-2009 22:05:01 6.2 C 5.66 g/m*3 6.2 C 0 km/h
Sensor: Nr:Datum:Temp:Abs-Feuchte:Windchill:Wind:
Aussen-T/F 1551 11-11-2009 22:18:03 6.2 C 5.66 g/m*3 6.2 C 0 km/h
1552 11-11-2009 22:30:03 6 C 5.66 g/m*3 6 C 0 km/h
1553 11-11-2009 22:42:03 5.7 C 5.62 g/m*3 5.7 C 0 km/h
1554 11-11-2009 22:54:03 5.2 C 5.44 g/m*3 5.2 C 0 km/h
1555 11-11-2009 23:06:03 4.8 C 5.5 g/m*3 4.8 C 0 km/h
1556 11-11-2009 23:18:03 4.4 C 5.42 g/m*3 4.4 C 0 km/h
1557 11-11-2009 23:30:03 4 C 5.34 g/m*3 4 C 0 km/h
1558 11-11-2009 23:42:03 3.7 C 5.3 g/m*3 3.7 C 0 km/h
1559 11-11-2009 23:54:03 3.5 C 5.29 g/m*3 3.5 C 0 km/h
1560 12-11-2009 00:06:03 3.3 C 5.28 g/m*3 3.3 C 0 km/h
1561 12-11-2009 00:18:03 3.1 C 5.21 g/m*3 3.1 C 0 km/h
1562 12-11-2009 00:30:03 2.8 C 5.16 g/m*3 2.8 C 0 km/h
1563 12-11-2009 00:42:03 2.6 C 5.15 g/m*3 2.6 C 0 km/h
1564 12-11-2009 00:54:03 2.4 C 5.08 g/m*3 2.4 C 0 km/h
1565 12-11-2009 01:06:03 2.1 C 4.98 g/m*3 2.1 C 0 km/h
1566 12-11-2009 01:18:03 2 C 4.95 g/m*3 2 C 0 km/h
1567 12-11-2009 01:30:03 1.8 C 4.93 g/m*3 1.8 C 0 km/h
1568 12-11-2009 01:42:03 1.7 C 4.9 g/m*3 1.7 C 0 km/h
1569 12-11-2009 01:54:03 1.7 C 4.9 g/m*3 1.7 C 0 km/h
1570 12-11-2009 02:06:04 1.4 C 4.85 g/m*3 1.4 C 0 km/h
1571 12-11-2009 02:18:04 1.3 C 4.82 g/m*3 1.3 C 0 km/h
1572 12-11-2009 02:30:04 1.2 C 4.79 g/m*3 1.2 C 0 km/h
1573 12-11-2009 02:42:04 1.2 C 4.79 g/m*3 1.2 C 0 km/h
1574 12-11-2009 02:54:04 1.1 C 4.76 g/m*3 1.1 C 0 km/h
1575 12-11-2009 03:06:04 1 C 4.72 g/m*3 1 C 0 km/h
Sensor: Nr:Datum:Temp:Abs-Feuchte:Windchill:Wind:
Aussen-T/F 1576 12-11-2009 03:18:04 0.9 C 4.74 g/m*3 0.9 C 0 km/h
1577 12-11-2009 03:30:04 0.8 C 4.71 g/m*3 0.8 C 0 km/h
1578 12-11-2009 03:42:04 0.8 C 4.71 g/m*3 0.8 C 0 km/h
1579 12-11-2009 03:54:04 1 C 4.78 g/m*3 1 C 0 km/h
1580 12-11-2009 04:06:04 0.8 C 4.76 g/m*3 0.8 C 0 km/h
1581 12-11-2009 04:18:04 0.6 C 4.7 g/m*3 0.6 C 0 km/h
1582 12-11-2009 04:30:04 0.5 C 4.66 g/m*3 0.5 C 0 km/h
1583 12-11-2009 04:42:04 0.4 C 4.63 g/m*3 0.4 C 0 km/h
1584 12-11-2009 04:54:04 0.3 C 4.6 g/m*3 0.3 C 0 km/h
1585 12-11-2009 05:06:04 0.2 C 4.57 g/m*3 0.2 C 0 km/h
1586 12-11-2009 05:18:04 0.2 C 4.62 g/m*3 0.2 C 0 km/h
1587 12-11-2009 05:30:04 0.4 C 4.68 g/m*3 0.4 C 0 km/h
1588 12-11-2009 05:42:04 0.6 C 4.75 g/m*3 0.6 C 0 km/h
1589 12-11-2009 05:54:05 0.7 C 4.83 g/m*3 0.7 C 0 km/h
1590 12-11-2009 06:06:05 0.9 C 4.9 g/m*3 0.9 C 0 km/h
1591 12-11-2009 06:18:03 1 C 4.93 g/m*3 1 C 0 km/h
1592 12-11-2009 06:30:03 1.1 C 4.96 g/m*3 1.1 C 0 km/h
1593 12-11-2009 06:42:03 1.1 C 4.96 g/m*3 1.1 C 0 km/h
1594 12-11-2009 06:54:01 1.2 C 5 g/m*3 1.2 C 0 km/h
1595 12-11-2009 07:06:02 1.3 C 5.03 g/m*3 1.3 C 0 km/h
1596 12-11-2009 07:18:01 1.4 C 5.07 g/m*3 1.4 C 0 km/h
1597 12-11-2009 07:30:01 1.4 C 5.07 g/m*3 1.4 C 0 km/h
1598 12-11-2009 07:42:01 1.4 C 5.07 g/m*3 1.4 C 0 km/h
1599 12-11-2009 07:54:01 1.7 C 5.17 g/m*3 1.7 C 0 km/h
1600 12-11-2009 08:06:02 1.7 C 5.17 g/m*3 1.7 C 0 km/h
Sensor: Nr:Datum:Temp:Abs-Feuchte:Windchill:Wind:
Aussen-T/F 1601 12-11-2009 08:18:01 1.9 C 5.24 g/m*3 1.9 C 0 km/h
1602 12-11-2009 08:30:01 2.2 C 5.35 g/m*3 2.2 C 0 km/h
1603 12-11-2009 08:42:02 2.3 C 5.39 g/m*3 2.3 C 0 km/h
1604 12-11-2009 08:54:01 2.7 C 5.54 g/m*3 2.7 C 0 km/h
1605 12-11-2009 09:06:02 3.1 C 5.69 g/m*3 3.1 C 0 km/h
1606 12-11-2009 09:18:01 3.3 C 5.76 g/m*3 3.3 C 0 km/h
1607 12-11-2009 09:30:01 3.5 C 5.84 g/m*3 3.5 C 0 km/h
1608 12-11-2009 09:42:02 3.7 C 5.92 g/m*3 3.7 C 0 km/h
1609 12-11-2009 09:54:01 3.7 C 5.92 g/m*3 3.7 C 0 km/h
1610 12-11-2009 10:06:01 3.5 C 5.84 g/m*3 3.5 C 0 km/h
1611 12-11-2009 10:18:02 3.5 C 5.84 g/m*3 3.5 C 0 km/h
1612 12-11-2009 10:30:02 3.5 C 5.84 g/m*3 3.5 C 0 km/h
1613 12-11-2009 10:42:01 3.7 C 5.92 g/m*3 3.7 C 0 km/h
1614 12-11-2009 10:54:02 4 C 6.04 g/m*3 4 C 0 km/h
1615 12-11-2009 11:06:02 4.2 C 6.12 g/m*3 4.2 C 0 km/h
1616 12-11-2009 11:18:02 4.4 C 6.2 g/m*3 4.4 C 0 km/h
1617 12-11-2009 11:30:02 4.6 C 6.29 g/m*3 4.6 C 0 km/h
1618 12-11-2009 11:42:02 4.8 C 6.37 g/m*3 4.8 C 0 km/h
1619 12-11-2009 11:54:02 5.1 C 6.5 g/m*3 5.1 C 0 km/h
1620 12-11-2009 12:06:02 5.3 C 6.58 g/m*3 5.3 C 0 km/h
1621 12-11-2009 12:18:01 5.5 C 6.6 g/m*3 5.5 C 0 km/h
1622 12-11-2009 12:30:01 5.6 C 6.65 g/m*3 5.6 C 0 km/h
1623 12-11-2009 12:42:02 5.7 C 6.62 g/m*3 5.7 C 0 km/h
1624 12-11-2009 12:54:02 5.6 C 6.5 g/m*3 5.6 C 0 km/h
1625 12-11-2009 13:06:02 5.7 C 6.55 g/m*3 5.7 C 0 km/h
Sensor: Nr:Datum:Temp:Abs-Feuchte:Windchill:Wind:
Aussen-T/F 1626 12-11-2009 13:18:02 5.8 C 6.59 g/m*3 5.8 C 0 km/h
1627 12-11-2009 13:30:02 5.9 C 6.56 g/m*3 5.9 C 0 km/h
1628 12-11-2009 13:42:02 6.3 C 6.66 g/m*3 6.3 C 0 km/h
1629 12-11-2009 13:54:02 6.6 C 6.72 g/m*3 6.6 C 0 km/h
1630 12-11-2009 14:06:02 6.6 C 6.64 g/m*3 6.6 C 0 km/h
1631 12-11-2009 14:18:02 6.8 C 6.73 g/m*3 6.8 C 0 km/h
1632 12-11-2009 14:30:02 7 C 6.74 g/m*3 7 C 0 km/h
1633 12-11-2009 14:42:02 7.3 C 6.79 g/m*3 7.3 C 0 km/h
1634 12-11-2009 14:54:02 7.5 C 6.8 g/m*3 7.5 C 0 km/h
1635 12-11-2009 15:06:02 7.4 C 6.76 g/m*3 7.4 C 0 km/h
1636 12-11-2009 15:18:02 7.3 C 6.72 g/m*3 7.3 C 0 km/h
1637 12-11-2009 15:30:02 7.3 C 6.79 g/m*3 7.3 C 0 km/h
1638 12-11-2009 15:42:02 7.4 C 6.84 g/m*3 7.4 C 0 km/h
1639 12-11-2009 15:54:02 7.4 C 6.92 g/m*3 7.4 C 0 km/h
1640 12-11-2009 16:06:02 7.5 C 6.96 g/m*3 7.5 C 0 km/h
1641 12-11-2009 16:18:03 7.5 C 6.96 g/m*3 7.5 C 0 km/h
1642 12-11-2009 16:30:03 7.5 C 6.96 g/m*3 7.5 C 0 km/h
1643 12-11-2009 16:42:02 7.5 C 6.96 g/m*3 7.5 C 0 km/h
1644 12-11-2009 16:54:02 7.6 C 7.01 g/m*3 7.6 C 0 km/h
1645 12-11-2009 17:06:02 7.7 C 7.05 g/m*3 7.7 C 0 km/h
1646 12-11-2009 17:18:02 7.7 C 7.14 g/m*3 7.7 C 0 km/h
1647 12-11-2009 17:30:02 7.7 C 7.14 g/m*3 7.7 C 0 km/h
1648 12-11-2009 17:42:02 7.8 C 7.18 g/m*3 7.8 C 0 km/h
1649 12-11-2009 17:54:02 7.9 C 7.23 g/m*3 7.9 C 0 km/h
1650 12-11-2009 18:06:02 8 C 7.19 g/m*3 8 C 0 km/h
Sensor: Nr:Datum:Temp:Abs-Feuchte:Windchill:Wind:
Aussen-T/F 1651 12-11-2009 18:18:02 8.2 C 7.29 g/m*3 8.2 C 0 km/h
1652 12-11-2009 18:30:02 8.1 C 7.16 g/m*3 8.1 C 0 km/h
1653 12-11-2009 18:42:02 8 C 7.11 g/m*3 8 C 0 km/h
1654 12-11-2009 18:54:02 7.9 C 7.23 g/m*3 7.9 C 0 km/h
1655 12-11-2009 19:06:02 7.9 C 7.23 g/m*3 7.9 C 0 km/h
1656 12-11-2009 19:18:02 7.9 C 7.31 g/m*3 7.9 C 0 km/h
1657 12-11-2009 19:30:03 7.9 C 7.31 g/m*3 7.9 C 0 km/h
1658 12-11-2009 19:42:02 7.8 C 7.26 g/m*3 7.8 C 0 km/h
1659 12-11-2009 19:54:02 7.8 C 7.26 g/m*3 7.8 C 0 km/h
1660 12-11-2009 20:06:01 7.8 C 7.35 g/m*3 7.8 C 0 km/h
1661 12-11-2009 20:18:02 7.8 C 7.35 g/m*3 7.8 C 0 km/h
1662 12-11-2009 20:30:02 7.8 C 7.35 g/m*3 7.8 C 0 km/h
1663 12-11-2009 20:42:02 7.6 C 7.33 g/m*3 7.6 C 0 km/h
1664 12-11-2009 20:54:01 7.6 C 7.33 g/m*3 7.6 C 0 km/h
1665 12-11-2009 21:06:02 7.5 C 7.28 g/m*3 7.5 C 0 km/h
1666 12-11-2009 21:18:01 7.3 C 7.27 g/m*3 7.3 C 0 km/h
1667 12-11-2009 21:30:01 7.1 C 7.18 g/m*3 7.1 C 0 km/h
1668 12-11-2009 21:42:01 7 C 7.13 g/m*3 7 C 0 km/h
1669 12-11-2009 21:54:01 7.1 C 7.25 g/m*3 7.1 C 0 km/h
1670 12-11-2009 22:07:01 7.4 C 7.4 g/m*3 7.4 C 0 km/h
1671 12-11-2009 22:19:01 7.5 C 7.52 g/m*3 7.5 C 0 km/h
1672 12-11-2009 22:31:01 7.2 C 7.3 g/m*3 7.2 C 0 km/h
1673 12-11-2009 22:43:01 7.3 C 7.35 g/m*3 7.3 C 0 km/h
1674 12-11-2009 22:55:01 7.6 C 7.49 g/m*3 7.6 C 0 km/h
1675 12-11-2009 23:07:01 8.1 C 7.66 g/m*3 8.1 C 0 km/h
Sensor: Nr:Datum:Temp:Abs-Feuchte:Windchill:Wind:
Aussen-T/F 1676 12-11-2009 23:19:01 7.9 C 7.47 g/m*3 7.9 C 0 km/h
1677 12-11-2009 23:31:02 8 C 7.36 g/m*3 8 C 0 km/h
1678 12-11-2009 23:43:02 8.3 C 7.5 g/m*3 8.3 C 0 km/h
1679 12-11-2009 23:55:02 8.6 C 7.48 g/m*3 8.6 C 0 km/h

Legende:
   Min
   Max


Maximal/Minimal-Werte vom 17.04.2019 - 19.05.2019

Sensor Min Max Avg
Temp
(Aussen-T/F)
2.2 °C
13-05-2019  06:50:00
26.6 °C
24-04-2019  17:05:00
11.51 °C

Die Daten stammen von einer Davis Vantage Pro 2 Wetter-Station und werden unter Linux mit der Software wview2wettercgi und aufbereitet. Alle Angaben erfolgen ohne Gewähr für ihre Vollständigkeit oder Richtigkeit.
Kontakt: Rainer Krienke krienke@uni-koblenz.de . Meine Webseiten an der Uni Koblenz oder privat.
Version: $Revision: 0.78 $